PWSweather.com
Personal Weather Stations
Station Observations
RODAVGI
Xerovouni, RodavgiGR 47046

XerovouniRodavgiGR 47046

Lat: 39.3236, Lon: 20.9975

Elevation: 2287

Station Type: Ambient Weather WS-2902A

Latest ConditionsUpdated 10:29:00 AM GMT+02:02 Monday, Aug 26, 2019
Currently Today's Max Today's Min Today's Average
Temperature 86.9°F30.5°C 87.3°F30.7°C 75.0°F23.9°C 79.6°F26.4°C
Dew Point 55.1°F12.8°C 57.8°F14.3°C 46.1°F7.8°C 52.6°F11.4°C
Winds 2.2 mph E3.5 kmh E 9.6 mph -15.4 kmh - - 1.4 mph 2.3 kmh
Wind Gusts 3.4 mph5.5 kmh 12.5 mph20.1 kmh - -
Humidity 34% 46% 33% 39%
Pressure 29.80 in1009.1 mb 29.81 in1009.5 mb 29.76 in1007.8 mb -
Hour Temp Dew Point Humidity Winds Wind Gusts Pressure Precip Precip Rate Daily Precip Total
10:29 AM 86.9°F30.5°C 55.1°F12.8°C 34% 2.2 mph E3.5 kmh E 3.4 mph5.5 kmh 29.80 in1009.1 mb 0.00 in0.0 mm 0.00 in0.0 mm 0.00 in0.0 mm
10:28 AM 87.1°F30.6°C 56.1°F13.4°C 35% 3.1 mph NNE5.0 kmh NNE 4.5 mph7.2 kmh 29.81 in1009.5 mb 0.00 in0.0 mm 0.00 in0.0 mm 0.00 in0.0 mm
10:27 AM 87.3°F30.7°C 54.6°F12.6°C 33% 9.2 mph NE14.8 kmh NE 12.5 mph20.1 kmh 29.80 in1009.1 mb 0.00 in0.0 mm 0.00 in0.0 mm 0.00 in0.0 mm
10:26 AM 87.3°F30.7°C 56.3°F13.5°C 35% 2.9 mph NNW4.7 kmh NNW 3.4 mph5.5 kmh 29.81 in1009.5 mb 0.00 in0.0 mm 0.00 in0.0 mm 0.00 in0.0 mm
10:25 AM 87.1°F30.6°C 55.3°F12.9°C 34% 3.1 mph NE5.0 kmh NE 4.5 mph7.2 kmh 29.81 in1009.5 mb 0.00 in0.0 mm 0.00 in0.0 mm 0.00 in0.0 mm
10:24 AM 87.1°F30.6°C 56.1°F13.4°C 35% 2.0 mph N3.2 kmh N 5.8 mph9.3 kmh 29.80 in1009.1 mb 0.00 in0.0 mm 0.00 in0.0 mm 0.00 in0.0 mm
10:23 AM 86.7°F30.4°C 54.9°F12.7°C 34% 1.8 mph E2.9 kmh E 2.2 mph3.5 kmh 29.80 in1009.1 mb 0.00 in0.0 mm 0.00 in0.0 mm 0.00 in0.0 mm
10:22 AM 86.7°F30.4°C 55.7°F13.2°C 35% 1.6 mph E2.6 kmh E 2.2 mph3.5 kmh 29.81 in1009.5 mb 0.00 in0.0 mm 0.00 in0.0 mm 0.00 in0.0 mm
10:21 AM 86.4°F30.2°C 56.3°F13.5°C 36% 3.8 mph NE6.1 kmh NE 5.8 mph9.3 kmh 29.81 in1009.5 mb 0.00 in0.0 mm 0.00 in0.0 mm 0.00 in0.0 mm
10:20 AM 86.0°F30.0°C 55.1°F12.8°C 35% 1.8 mph ENE2.9 kmh ENE 3.4 mph5.5 kmh 29.80 in1009.1 mb 0.00 in0.0 mm 0.00 in0.0 mm 0.00 in0.0 mm
10:19 AM 85.8°F29.9°C 54.9°F12.7°C 35% 3.4 mph NE5.5 kmh NE 4.5 mph7.2 kmh 29.80 in1009.1 mb 0.00 in0.0 mm 0.00 in0.0 mm 0.00 in0.0 mm
10:18 AM 86.0°F30.0°C 55.1°F12.8°C 35% 2.2 mph E3.5 kmh E 3.4 mph5.5 kmh 29.81 in1009.5 mb 0.00 in0.0 mm 0.00 in0.0 mm 0.00 in0.0 mm
10:17 AM 86.5°F30.3°C 54.8°F12.7°C 34% 4.5 mph NE7.2 kmh NE 6.9 mph11.1 kmh 29.80 in1009.1 mb 0.00 in0.0 mm 0.00 in0.0 mm 0.00 in0.0 mm
10:16 AM 86.5°F30.3°C 54.8°F12.7°C 34% 5.1 mph NNE8.2 kmh NNE 6.9 mph11.1 kmh 29.80 in1009.1 mb 0.00 in0.0 mm 0.00 in0.0 mm 0.00 in0.0 mm
10:15 AM 86.5°F30.3°C 54.8°F12.7°C 34% 7.6 mph ENE12.2 kmh ENE 10.3 mph16.6 kmh 29.81 in1009.5 mb 0.00 in0.0 mm 0.00 in0.0 mm 0.00 in0.0 mm
10:14 AM 86.4°F30.2°C 54.7°F12.6°C 34% 6.9 mph NNE11.1 kmh NNE 8.1 mph13.0 kmh 29.81 in1009.5 mb 0.00 in0.0 mm 0.00 in0.0 mm 0.00 in0.0 mm
10:13 AM 86.4°F30.2°C 56.3°F13.5°C 36% 1.8 mph ENE2.9 kmh ENE 2.2 mph3.5 kmh 29.81 in1009.5 mb 0.00 in0.0 mm 0.00 in0.0 mm 0.00 in0.0 mm
10:12 AM 86.4°F30.2°C 55.5°F13.1°C 35% 4.7 mph N7.6 kmh N 6.9 mph11.1 kmh 29.80 in1009.1 mb 0.00 in0.0 mm 0.00 in0.0 mm 0.00 in0.0 mm
10:11 AM 86.4°F30.2°C 55.5°F13.1°C 35% 1.1 mph E1.8 kmh E 2.2 mph3.5 kmh 29.81 in1009.5 mb 0.00 in0.0 mm 0.00 in0.0 mm 0.00 in0.0 mm
10:10 AM 86.4°F30.2°C 55.5°F13.1°C 35% 4.5 mph NNE7.2 kmh NNE 6.9 mph11.1 kmh 29.81 in1009.5 mb 0.00 in0.0 mm 0.00 in0.0 mm 0.00 in0.0 mm
10:09 AM 86.4°F30.2°C 56.3°F13.5°C 36% 2.9 mph NNE4.7 kmh NNE 4.5 mph7.2 kmh 29.80 in1009.1 mb 0.00 in0.0 mm 0.00 in0.0 mm 0.00 in0.0 mm
10:08 AM 86.4°F30.2°C 55.5°F13.1°C 35% 4.0 mph E6.4 kmh E 5.8 mph9.3 kmh 29.81 in1009.5 mb 0.00 in0.0 mm 0.00 in0.0 mm 0.00 in0.0 mm
10:07 AM 86.2°F30.1°C 55.3°F12.9°C 35% 4.5 mph NNW7.2 kmh NNW 8.1 mph13.0 kmh 29.80 in1009.1 mb 0.00 in0.0 mm 0.00 in0.0 mm 0.00 in0.0 mm
10:06 AM 86.0°F30.0°C 55.1°F12.8°C 35% 1.3 mph E2.1 kmh E 2.2 mph3.5 kmh 29.80 in1009.1 mb 0.00 in0.0 mm 0.00 in0.0 mm 0.00 in0.0 mm
10:05 AM 85.8°F29.9°C 54.2°F12.3°C 34% 6.9 mph NE11.1 kmh NE 8.1 mph13.0 kmh 29.80 in1009.1 mb 0.00 in0.0 mm 0.00 in0.0 mm 0.00 in0.0 mm
10:04 AM 85.6°F29.8°C 55.6°F13.1°C 36% 2.9 mph NNE4.7 kmh NNE 3.4 mph5.5 kmh 29.80 in1009.1 mb 0.00 in0.0 mm 0.00 in0.0 mm 0.00 in0.0 mm
10:03 AM 85.6°F29.8°C 55.6°F13.1°C 36% 2.2 mph NE3.5 kmh NE 3.4 mph5.5 kmh 29.81 in1009.5 mb 0.00 in0.0 mm 0.00 in0.0 mm 0.00 in0.0 mm
10:02 AM 85.8°F29.9°C 54.9°F12.7°C 35% 1.3 mph E2.1 kmh E 2.2 mph3.5 kmh 29.81 in1009.5 mb 0.00 in0.0 mm 0.00 in0.0 mm 0.00 in0.0 mm
10:01 AM 85.8°F29.9°C 54.2°F12.3°C 34% 3.8 mph NE6.1 kmh NE 5.8 mph9.3 kmh 29.80 in1009.1 mb 0.00 in0.0 mm 0.00 in0.0 mm 0.00 in0.0 mm
10:00 AM 85.3°F29.6°C 54.5°F12.5°C 35% 0.9 mph E1.4 kmh E 1.1 mph1.8 kmh 29.80 in1009.1 mb 0.00 in0.0 mm 0.00 in0.0 mm 0.00 in0.0 mm
09:59 AM 84.9°F29.4°C 54.9°F12.7°C 36% 4.7 mph ENE7.6 kmh ENE 6.9 mph11.1 kmh 29.80 in1009.1 mb 0.00 in0.0 mm 0.00 in0.0 mm 0.00 in0.0 mm
09:58 AM 84.7°F29.3°C 54.0°F12.2°C 35% 4.9 mph ENE7.9 kmh ENE 5.8 mph9.3 kmh 29.79 in1008.8 mb 0.00 in0.0 mm 0.00 in0.0 mm 0.00 in0.0 mm
09:57 AM 84.9°F29.4°C 54.2°F12.3°C 35% 5.6 mph NE9.0 kmh NE 8.1 mph13.0 kmh 29.81 in1009.5 mb 0.00 in0.0 mm 0.00 in0.0 mm 0.00 in0.0 mm
09:56 AM 85.1°F29.5°C 53.5°F11.9°C 34% 4.9 mph NNE7.9 kmh NNE 9.2 mph14.8 kmh 29.80 in1009.1 mb 0.00 in0.0 mm 0.00 in0.0 mm 0.00 in0.0 mm
09:55 AM 85.3°F29.6°C 53.7°F12.1°C 34% 6.9 mph E11.1 kmh E 11.4 mph18.3 kmh 29.80 in1009.1 mb 0.00 in0.0 mm 0.00 in0.0 mm 0.00 in0.0 mm
09:54 AM 85.3°F29.6°C 54.5°F12.5°C 35% 4.5 mph SE7.2 kmh SE 6.9 mph11.1 kmh 29.81 in1009.5 mb 0.00 in0.0 mm 0.00 in0.0 mm 0.00 in0.0 mm
09:53 AM 85.3°F29.6°C 54.5°F12.5°C 35% 2.7 mph N4.3 kmh N 3.4 mph5.5 kmh 29.81 in1009.5 mb 0.00 in0.0 mm 0.00 in0.0 mm 0.00 in0.0 mm
09:52 AM 85.3°F29.6°C 55.3°F12.9°C 36% 0.9 mph SE1.4 kmh SE 1.1 mph1.8 kmh 29.80 in1009.1 mb 0.00 in0.0 mm 0.00 in0.0 mm 0.00 in0.0 mm
09:50 AM 85.1°F29.5°C 54.3°F12.4°C 35% 6.7 mph N10.8 kmh N 8.1 mph13.0 kmh 29.80 in1009.1 mb 0.00 in0.0 mm 0.00 in0.0 mm 0.00 in0.0 mm
09:49 AM 84.9°F29.4°C 54.9°F12.7°C 36% 2.0 mph SE3.2 kmh SE 2.2 mph3.5 kmh 29.80 in1009.1 mb 0.00 in0.0 mm 0.00 in0.0 mm 0.00 in0.0 mm
09:48 AM 85.1°F29.5°C 54.3°F12.4°C 35% 2.7 mph NE4.3 kmh NE 4.5 mph7.2 kmh 29.80 in1009.1 mb 0.00 in0.0 mm 0.00 in0.0 mm 0.00 in0.0 mm
09:47 AM 85.1°F29.5°C 55.1°F12.8°C 36% 1.6 mph NE2.6 kmh NE 2.2 mph3.5 kmh 29.81 in1009.5 mb 0.00 in0.0 mm 0.00 in0.0 mm 0.00 in0.0 mm
09:46 AM 85.1°F29.5°C 53.5°F11.9°C 34% 2.7 mph N4.3 kmh N 3.4 mph5.5 kmh 29.81 in1009.5 mb 0.00 in0.0 mm 0.00 in0.0 mm 0.00 in0.0 mm
09:45 AM 84.7°F29.3°C 54.8°F12.7°C 36% 2.5 mph NNE4.0 kmh NNE 3.4 mph5.5 kmh 29.81 in1009.5 mb 0.00 in0.0 mm 0.00 in0.0 mm 0.00 in0.0 mm
09:44 AM 84.6°F29.2°C 54.7°F12.6°C 36% 2.9 mph NNE4.7 kmh NNE 3.4 mph5.5 kmh 29.81 in1009.5 mb 0.00 in0.0 mm 0.00 in0.0 mm 0.00 in0.0 mm
09:43 AM 84.6°F29.2°C 54.7°F12.6°C 36% 2.0 mph NE3.2 kmh NE 2.2 mph3.5 kmh 29.81 in1009.5 mb 0.00 in0.0 mm 0.00 in0.0 mm 0.00 in0.0 mm
09:42 AM 84.7°F29.3°C 56.2°F13.4°C 38% 2.2 mph NE3.5 kmh NE 4.5 mph7.2 kmh 29.80 in1009.1 mb 0.00 in0.0 mm 0.00 in0.0 mm 0.00 in0.0 mm
09:41 AM 85.1°F29.5°C 55.9°F13.3°C 37% 3.8 mph NE6.1 kmh NE 4.5 mph7.2 kmh 29.80 in1009.1 mb 0.00 in0.0 mm 0.00 in0.0 mm 0.00 in0.0 mm
09:40 AM 85.3°F29.6°C 55.3°F12.9°C 36% 3.6 mph NE5.8 kmh NE 5.8 mph9.3 kmh 29.81 in1009.5 mb 0.00 in0.0 mm 0.00 in0.0 mm 0.00 in0.0 mm
09:39 AM 85.3°F29.6°C 56.0°F13.3°C 37% 1.3 mph ENE2.1 kmh ENE 2.2 mph3.5 kmh 29.81 in1009.5 mb 0.00 in0.0 mm 0.00 in0.0 mm 0.00 in0.0 mm
09:38 AM 85.5°F29.7°C 55.5°F13.1°C 36% 1.1 mph ESE1.8 kmh ESE 2.2 mph3.5 kmh 29.80 in1009.1 mb 0.00 in0.0 mm 0.00 in0.0 mm 0.00 in0.0 mm
09:37 AM 85.5°F29.7°C 53.9°F12.2°C 34% 2.0 mph NNE3.2 kmh NNE 2.2 mph3.5 kmh 29.81 in1009.5 mb 0.00 in0.0 mm 0.00 in0.0 mm 0.00 in0.0 mm
09:36 AM 85.6°F29.8°C 55.6°F13.1°C 36% 1.3 mph ENE2.1 kmh ENE 2.2 mph3.5 kmh 29.81 in1009.5 mb 0.00 in0.0 mm 0.00 in0.0 mm 0.00 in0.0 mm
09:35 AM 85.6°F29.8°C 56.3°F13.5°C 37% 1.3 mph NE2.1 kmh NE 2.2 mph3.5 kmh 29.81 in1009.5 mb 0.00 in0.0 mm 0.00 in0.0 mm 0.00 in0.0 mm
09:34 AM 85.6°F29.8°C 55.6°F13.1°C 36% 1.8 mph ENE2.9 kmh ENE 2.2 mph3.5 kmh 29.81 in1009.5 mb 0.00 in0.0 mm 0.00 in0.0 mm 0.00 in0.0 mm
09:33 AM 85.8°F29.9°C 56.5°F13.6°C 37% 1.3 mph E2.1 kmh E 2.2 mph3.5 kmh 29.80 in1009.1 mb 0.00 in0.0 mm 0.00 in0.0 mm 0.00 in0.0 mm
09:32 AM 86.5°F30.3°C 57.8°F14.3°C 38% 1.8 mph E2.9 kmh E 2.2 mph3.5 kmh 29.80 in1009.1 mb 0.00 in0.0 mm 0.00 in0.0 mm 0.00 in0.0 mm
09:31 AM 86.5°F30.3°C 56.3°F13.5°C 36% 0.9 mph SSE1.4 kmh SSE 2.2 mph3.5 kmh 29.80 in1009.1 mb 0.00 in0.0 mm 0.00 in0.0 mm 0.00 in0.0 mm
09:30 AM 86.2°F30.1°C 56.8°F13.8°C 37% 0.7 mph S1.1 kmh S 1.1 mph1.8 kmh 29.81 in1009.5 mb 0.00 in0.0 mm 0.00 in0.0 mm 0.00 in0.0 mm
09:29 AM 86.0°F30.0°C 57.4°F14.1°C 38% 1.8 mph SW2.9 kmh SW 3.4 mph5.5 kmh 29.80 in1009.1 mb 0.00 in0.0 mm 0.00 in0.0 mm 0.00 in0.0 mm
09:28 AM 85.8°F29.9°C 55.7°F13.2°C 36% 0.9 mph SSE1.4 kmh SSE 1.1 mph1.8 kmh 29.80 in1009.1 mb 0.00 in0.0 mm 0.00 in0.0 mm 0.00 in0.0 mm
09:27 AM 85.6°F29.8°C 54.8°F12.7°C 35% 0.7 mph SW1.1 kmh SW 1.1 mph1.8 kmh 29.81 in1009.5 mb 0.00 in0.0 mm 0.00 in0.0 mm 0.00 in0.0 mm
09:26 AM 85.5°F29.7°C 56.2°F13.4°C 37% 0.2 mph S0.3 kmh S 1.1 mph1.8 kmh 29.81 in1009.5 mb 0.00 in0.0 mm 0.00 in0.0 mm 0.00 in0.0 mm
09:25 AM 84.9°F29.4°C 55.7°F13.2°C 37% 1.1 mph S1.8 kmh S 2.2 mph3.5 kmh 29.81 in1009.5 mb 0.00 in0.0 mm 0.00 in0.0 mm 0.00 in0.0 mm
09:24 AM 84.6°F29.2°C 56.2°F13.4°C 38% 0.2 mph SE0.3 kmh SE 1.1 mph1.8 kmh 29.80 in1009.1 mb 0.00 in0.0 mm 0.00 in0.0 mm 0.00 in0.0 mm
09:23 AM 84.7°F29.3°C 56.2°F13.4°C 38% 1.6 mph E2.6 kmh E 2.2 mph3.5 kmh 29.81 in1009.5 mb 0.00 in0.0 mm 0.00 in0.0 mm 0.00 in0.0 mm
09:22 AM 84.9°F29.4°C 54.9°F12.7°C 36% 3.6 mph NE5.8 kmh NE 4.5 mph7.2 kmh 29.80 in1009.1 mb 0.00 in0.0 mm 0.00 in0.0 mm 0.00 in0.0 mm
09:21 AM 84.9°F29.4°C 55.7°F13.2°C 37% 1.8 mph ESE2.9 kmh ESE 3.4 mph5.5 kmh 29.80 in1009.1 mb 0.00 in0.0 mm 0.00 in0.0 mm 0.00 in0.0 mm
09:20 AM 84.9°F29.4°C 55.7°F13.2°C 37% 1.8 mph NNE2.9 kmh NNE 2.2 mph3.5 kmh 29.80 in1009.1 mb 0.00 in0.0 mm 0.00 in0.0 mm 0.00 in0.0 mm
09:19 AM 84.7°F29.3°C 55.5°F13.1°C 37% 0.2 mph SE0.3 kmh SE 1.1 mph1.8 kmh 29.80 in1009.1 mb 0.00 in0.0 mm 0.00 in0.0 mm 0.00 in0.0 mm
09:18 AM 84.7°F29.3°C 55.5°F13.1°C 37% 0.2 mph NE0.3 kmh NE 1.1 mph1.8 kmh 29.80 in1009.1 mb 0.00 in0.0 mm 0.00 in0.0 mm 0.00 in0.0 mm
09:17 AM 84.7°F29.3°C 54.8°F12.7°C 36% 1.1 mph NE1.8 kmh NE 1.1 mph1.8 kmh 29.80 in1009.1 mb 0.00 in0.0 mm 0.00 in0.0 mm 0.00 in0.0 mm
09:16 AM 84.7°F29.3°C 54.8°F12.7°C 36% 2.2 mph S3.5 kmh S 3.4 mph5.5 kmh 29.80 in1009.1 mb 0.00 in0.0 mm 0.00 in0.0 mm 0.00 in0.0 mm
09:15 AM 84.7°F29.3°C 55.5°F13.1°C 37% 1.8 mph NE2.9 kmh NE 3.4 mph5.5 kmh 29.80 in1009.1 mb 0.00 in0.0 mm 0.00 in0.0 mm 0.00 in0.0 mm
09:14 AM 84.7°F29.3°C 54.8°F12.7°C 36% 1.8 mph ENE2.9 kmh ENE 2.2 mph3.5 kmh 29.81 in1009.5 mb 0.00 in0.0 mm 0.00 in0.0 mm 0.00 in0.0 mm
09:13 AM 84.7°F29.3°C 54.0°F12.2°C 35% 0.4 mph E0.6 kmh E 1.1 mph1.8 kmh 29.80 in1009.1 mb 0.00 in0.0 mm 0.00 in0.0 mm 0.00 in0.0 mm
09:12 AM 85.3°F29.6°C 56.8°F13.8°C 38% 1.1 mph NE1.8 kmh NE 1.1 mph1.8 kmh 29.79 in1008.8 mb 0.00 in0.0 mm 0.00 in0.0 mm 0.00 in0.0 mm
09:11 AM 85.5°F29.7°C 55.5°F13.1°C 36% 3.4 mph NNE5.5 kmh NNE 4.5 mph7.2 kmh 29.80 in1009.1 mb 0.00 in0.0 mm 0.00 in0.0 mm 0.00 in0.0 mm
09:10 AM 85.3°F29.6°C 56.0°F13.3°C 37% 0.7 mph NE1.1 kmh NE 2.2 mph3.5 kmh 29.80 in1009.1 mb 0.00 in0.0 mm 0.00 in0.0 mm 0.00 in0.0 mm
09:09 AM 85.1°F29.5°C 55.9°F13.3°C 37% 0.7 mph ENE1.1 kmh ENE 1.1 mph1.8 kmh 29.80 in1009.1 mb 0.00 in0.0 mm 0.00 in0.0 mm 0.00 in0.0 mm
09:08 AM 84.9°F29.4°C 54.9°F12.7°C 36% 1.1 mph ESE1.8 kmh ESE 1.1 mph1.8 kmh 29.80 in1009.1 mb 0.00 in0.0 mm 0.00 in0.0 mm 0.00 in0.0 mm
09:07 AM 84.9°F29.4°C 55.7°F13.2°C 37% 2.0 mph SW3.2 kmh SW 2.2 mph3.5 kmh 29.80 in1009.1 mb 0.00 in0.0 mm 0.00 in0.0 mm 0.00 in0.0 mm
09:06 AM 85.1°F29.5°C 56.6°F13.7°C 38% 1.3 mph ENE2.1 kmh ENE 2.2 mph3.5 kmh 29.80 in1009.1 mb 0.00 in0.0 mm 0.00 in0.0 mm 0.00 in0.0 mm
09:05 AM 85.1°F29.5°C 55.1°F12.8°C 36% 0.2 mph ESE0.3 kmh ESE 1.1 mph1.8 kmh 29.81 in1009.5 mb 0.00 in0.0 mm 0.00 in0.0 mm 0.00 in0.0 mm
09:04 AM 84.7°F29.3°C 55.5°F13.1°C 37% Calm Calm -- 29.79 in1008.8 mb 0.00 in0.0 mm 0.00 in0.0 mm 0.00 in0.0 mm
09:03 AM 84.4°F29.1°C 56.0°F13.3°C 38% 0.9 mph SE1.4 kmh SE 1.1 mph1.8 kmh 29.80 in1009.1 mb 0.00 in0.0 mm 0.00 in0.0 mm 0.00 in0.0 mm
09:02 AM 84.2°F29.0°C 55.1°F12.8°C 37% 0.4 mph SE0.6 kmh SE 2.2 mph3.5 kmh 29.80 in1009.1 mb 0.00 in0.0 mm 0.00 in0.0 mm 0.00 in0.0 mm
09:01 AM 84.4°F29.1°C 56.0°F13.3°C 38% 0.2 mph S0.3 kmh S 1.1 mph1.8 kmh 29.80 in1009.1 mb 0.00 in0.0 mm 0.00 in0.0 mm 0.00 in0.0 mm
09:00 AM 84.6°F29.2°C 55.4°F13.0°C 37% 1.6 mph ENE2.6 kmh ENE 3.4 mph5.5 kmh 29.80 in1009.1 mb 0.00 in0.0 mm 0.00 in0.0 mm 0.00 in0.0 mm
08:59 AM 84.6°F29.2°C 54.7°F12.6°C 36% Calm Calm -- 29.79 in1008.8 mb 0.00 in0.0 mm 0.00 in0.0 mm 0.00 in0.0 mm
08:58 AM 84.6°F29.2°C 54.7°F12.6°C 36% Calm Calm -- 29.80 in1009.1 mb 0.00 in0.0 mm 0.00 in0.0 mm 0.00 in0.0 mm
08:57 AM 84.6°F29.2°C 53.9°F12.2°C 35% Calm Calm -- 29.80 in1009.1 mb 0.00 in0.0 mm 0.00 in0.0 mm 0.00 in0.0 mm
08:56 AM 84.6°F29.2°C 55.4°F13.0°C 37% 0.9 mph ENE1.4 kmh ENE 2.2 mph3.5 kmh 29.80 in1009.1 mb 0.00 in0.0 mm 0.00 in0.0 mm 0.00 in0.0 mm
08:55 AM 85.1°F29.5°C 55.9°F13.3°C 37% 1.6 mph S2.6 kmh S 2.2 mph3.5 kmh 29.79 in1008.8 mb 0.00 in0.0 mm 0.00 in0.0 mm 0.00 in0.0 mm
08:54 AM 85.1°F29.5°C 55.1°F12.8°C 36% 2.2 mph S3.5 kmh S 2.2 mph3.5 kmh 29.79 in1008.8 mb 0.00 in0.0 mm 0.00 in0.0 mm 0.00 in0.0 mm
08:53 AM 85.1°F29.5°C 55.1°F12.8°C 36% 0.2 mph SSE0.3 kmh SSE 1.1 mph1.8 kmh 29.80 in1009.1 mb 0.00 in0.0 mm 0.00 in0.0 mm 0.00 in0.0 mm
08:52 AM 84.6°F29.2°C 55.4°F13.0°C 37% Calm Calm -- 29.81 in1009.5 mb 0.00 in0.0 mm 0.00 in0.0 mm 0.00 in0.0 mm
08:51 AM 83.8°F28.8°C 55.5°F13.1°C 38% Calm Calm -- 29.80 in1009.1 mb 0.00 in0.0 mm 0.00 in0.0 mm 0.00 in0.0 mm
08:50 AM 83.7°F28.7°C 56.1°F13.4°C 39% Calm Calm -- 29.80 in1009.1 mb 0.00 in0.0 mm 0.00 in0.0 mm 0.00 in0.0 mm
08:49 AM 83.7°F28.7°C 56.8°F13.8°C 40% 0.2 mph E0.3 kmh E 1.1 mph1.8 kmh 29.80 in1009.1 mb 0.00 in0.0 mm 0.00 in0.0 mm 0.00 in0.0 mm
08:48 AM 83.7°F28.7°C 56.1°F13.4°C 39% 2.2 mph NE3.5 kmh NE 3.4 mph5.5 kmh 29.80 in1009.1 mb 0.00 in0.0 mm 0.00 in0.0 mm 0.00 in0.0 mm
08:47 AM 83.5°F28.6°C 55.9°F13.3°C 39% 0.7 mph ENE1.1 kmh ENE 2.2 mph3.5 kmh 29.80 in1009.1 mb 0.00 in0.0 mm 0.00 in0.0 mm 0.00 in0.0 mm
08:46 AM 83.5°F28.6°C 57.3°F14.1°C 41% 0.7 mph ENE1.1 kmh ENE 1.1 mph1.8 kmh 29.80 in1009.1 mb 0.00 in0.0 mm 0.00 in0.0 mm 0.00 in0.0 mm
08:45 AM 83.5°F28.6°C 55.9°F13.3°C 39% 2.0 mph NE3.2 kmh NE 3.4 mph5.5 kmh 29.80 in1009.1 mb 0.00 in0.0 mm 0.00 in0.0 mm 0.00 in0.0 mm
08:44 AM 83.5°F28.6°C 55.2°F12.9°C 38% 1.6 mph E2.6 kmh E 3.4 mph5.5 kmh 29.80 in1009.1 mb 0.00 in0.0 mm 0.00 in0.0 mm 0.00 in0.0 mm
08:43 AM 83.7°F28.7°C 56.1°F13.4°C 39% 0.4 mph E0.6 kmh E 1.1 mph1.8 kmh 29.80 in1009.1 mb 0.00 in0.0 mm 0.00 in0.0 mm 0.00 in0.0 mm
08:42 AM 83.7°F28.7°C 54.6°F12.6°C 37% 2.2 mph NE3.5 kmh NE 2.2 mph3.5 kmh 29.80 in1009.1 mb 0.00 in0.0 mm 0.00 in0.0 mm 0.00 in0.0 mm
08:41 AM 83.3°F28.5°C 55.0°F12.8°C 38% 0.7 mph ESE1.1 kmh ESE 1.1 mph1.8 kmh 29.80 in1009.1 mb 0.00 in0.0 mm 0.00 in0.0 mm 0.00 in0.0 mm
08:40 AM 83.3°F28.5°C 55.7°F13.2°C 39% 0.7 mph S1.1 kmh S 1.1 mph1.8 kmh 29.80 in1009.1 mb 0.00 in0.0 mm 0.00 in0.0 mm 0.00 in0.0 mm
08:39 AM 83.3°F28.5°C 57.1°F13.9°C 41% 2.5 mph E4.0 kmh E 3.4 mph5.5 kmh 29.80 in1009.1 mb 0.00 in0.0 mm 0.00 in0.0 mm 0.00 in0.0 mm
08:38 AM 83.3°F28.5°C 56.4°F13.6°C 40% 1.6 mph NNE2.6 kmh NNE 2.2 mph3.5 kmh 29.80 in1009.1 mb 0.00 in0.0 mm 0.00 in0.0 mm 0.00 in0.0 mm
08:37 AM 83.1°F28.4°C 55.5°F13.1°C 39% 0.9 mph ESE1.4 kmh ESE 1.1 mph1.8 kmh 29.80 in1009.1 mb 0.00 in0.0 mm 0.00 in0.0 mm 0.00 in0.0 mm
08:36 AM 82.9°F28.3°C 55.4°F13.0°C 39% 0.9 mph SE1.4 kmh SE 1.1 mph1.8 kmh 29.79 in1008.8 mb 0.00 in0.0 mm 0.00 in0.0 mm 0.00 in0.0 mm
08:35 AM 82.9°F28.3°C 55.4°F13.0°C 39% 0.2 mph E0.3 kmh E 1.1 mph1.8 kmh 29.80 in1009.1 mb 0.00 in0.0 mm 0.00 in0.0 mm 0.00 in0.0 mm
08:34 AM 83.3°F28.5°C 55.7°F13.2°C 39% 2.5 mph NE4.0 kmh NE 3.4 mph5.5 kmh 29.80 in1009.1 mb 0.00 in0.0 mm 0.00 in0.0 mm 0.00 in0.0 mm
08:33 AM 84.0°F28.9°C 55.6°F13.1°C 38% 1.8 mph ENE2.9 kmh ENE 2.2 mph3.5 kmh 29.80 in1009.1 mb 0.00 in0.0 mm 0.00 in0.0 mm 0.00 in0.0 mm
08:32 AM 84.2°F29.0°C 55.8°F13.2°C 38% 0.7 mph E1.1 kmh E 1.1 mph1.8 kmh 29.80 in1009.1 mb 0.00 in0.0 mm 0.00 in0.0 mm 0.00 in0.0 mm
08:31 AM 83.7°F28.7°C 55.4°F13.0°C 38% 0.7 mph SE1.1 kmh SE 1.1 mph1.8 kmh 29.81 in1009.5 mb 0.00 in0.0 mm 0.00 in0.0 mm 0.00 in0.0 mm
08:29 AM 82.8°F28.2°C 56.0°F13.3°C 40% 0.7 mph SE1.1 kmh SE 1.1 mph1.8 kmh 29.80 in1009.1 mb 0.00 in0.0 mm 0.00 in0.0 mm 0.00 in0.0 mm
08:28 AM 82.4°F28.0°C 56.3°F13.5°C 41% 1.1 mph NW1.8 kmh NW 2.2 mph3.5 kmh 29.80 in1009.1 mb 0.00 in0.0 mm 0.00 in0.0 mm 0.00 in0.0 mm
08:27 AM 82.4°F28.0°C 55.6°F13.1°C 40% 0.9 mph E1.4 kmh E 1.1 mph1.8 kmh 29.80 in1009.1 mb 0.00 in0.0 mm 0.00 in0.0 mm 0.00 in0.0 mm
08:25 AM 82.4°F28.0°C 55.6°F13.1°C 40% 2.5 mph ENE4.0 kmh ENE 3.4 mph5.5 kmh 29.80 in1009.1 mb 0.00 in0.0 mm 0.00 in0.0 mm 0.00 in0.0 mm
08:24 AM 82.4°F28.0°C 54.2°F12.3°C 38% 1.6 mph E2.6 kmh E 2.2 mph3.5 kmh 29.80 in1009.1 mb 0.00 in0.0 mm 0.00 in0.0 mm 0.00 in0.0 mm
08:23 AM 82.4°F28.0°C 54.9°F12.7°C 39% 0.7 mph SE1.1 kmh SE 1.1 mph1.8 kmh 29.80 in1009.1 mb 0.00 in0.0 mm 0.00 in0.0 mm 0.00 in0.0 mm
08:22 AM 82.4°F28.0°C 55.6°F13.1°C 40% 1.6 mph SE2.6 kmh SE 2.2 mph3.5 kmh 29.80 in1009.1 mb 0.00 in0.0 mm 0.00 in0.0 mm 0.00 in0.0 mm
08:20 AM 82.2°F27.9°C 54.7°F12.6°C 39% 1.1 mph ESE1.8 kmh ESE 1.1 mph1.8 kmh 29.80 in1009.1 mb 0.00 in0.0 mm 0.00 in0.0 mm 0.00 in0.0 mm
08:19 AM 82.2°F27.9°C 55.4°F13.0°C 40% 2.0 mph E3.2 kmh E 3.4 mph5.5 kmh 29.81 in1009.5 mb 0.00 in0.0 mm 0.00 in0.0 mm 0.00 in0.0 mm
08:18 AM 82.4°F28.0°C 55.6°F13.1°C 40% 4.3 mph NNE6.9 kmh NNE 5.8 mph9.3 kmh 29.80 in1009.1 mb 0.00 in0.0 mm 0.00 in0.0 mm 0.00 in0.0 mm
08:17 AM 82.6°F28.1°C 55.8°F13.2°C 40% 1.8 mph S2.9 kmh S 3.4 mph5.5 kmh 29.80 in1009.1 mb 0.00 in0.0 mm 0.00 in0.0 mm 0.00 in0.0 mm
08:16 AM 82.8°F28.2°C 55.3°F12.9°C 39% 2.9 mph E4.7 kmh E 3.4 mph5.5 kmh 29.80 in1009.1 mb 0.00 in0.0 mm 0.00 in0.0 mm 0.00 in0.0 mm
08:15 AM 83.1°F28.4°C 55.5°F13.1°C 39% 1.6 mph SSE2.6 kmh SSE 2.2 mph3.5 kmh 29.80 in1009.1 mb 0.00 in0.0 mm 0.00 in0.0 mm 0.00 in0.0 mm
08:14 AM 83.7°F28.7°C 56.1°F13.4°C 39% 0.2 mph SE0.3 kmh SE 1.1 mph1.8 kmh 29.80 in1009.1 mb 0.00 in0.0 mm 0.00 in0.0 mm 0.00 in0.0 mm
08:13 AM 83.7°F28.7°C 56.1°F13.4°C 39% 2.5 mph NNE4.0 kmh NNE 3.4 mph5.5 kmh 29.80 in1009.1 mb 0.00 in0.0 mm 0.00 in0.0 mm 0.00 in0.0 mm
08:12 AM 83.3°F28.5°C 55.7°F13.2°C 39% Calm Calm -- 29.80 in1009.1 mb 0.00 in0.0 mm 0.00 in0.0 mm 0.00 in0.0 mm
08:11 AM 82.9°F28.3°C 54.7°F12.6°C 38% Calm Calm -- 29.80 in1009.1 mb 0.00 in0.0 mm 0.00 in0.0 mm 0.00 in0.0 mm
08:10 AM 82.9°F28.3°C 55.4°F13.0°C 39% 0.9 mph S1.4 kmh S 1.1 mph1.8 kmh 29.80 in1009.1 mb 0.00 in0.0 mm 0.00 in0.0 mm 0.00 in0.0 mm
08:09 AM 82.8°F28.2°C 55.3°F12.9°C 39% 0.7 mph S1.1 kmh S 1.1 mph1.8 kmh 29.81 in1009.5 mb 0.00 in0.0 mm 0.00 in0.0 mm 0.00 in0.0 mm
08:08 AM 81.7°F27.6°C 54.3°F12.4°C 39% Calm Calm -- 29.80 in1009.1 mb 0.00 in0.0 mm 0.00 in0.0 mm 0.00 in0.0 mm
08:07 AM 81.5°F27.5°C 55.5°F13.1°C 41% Calm Calm -- 29.80 in1009.1 mb 0.00 in0.0 mm 0.00 in0.0 mm 0.00 in0.0 mm
08:06 AM 81.5°F27.5°C 54.8°F12.7°C 40% 0.9 mph E1.4 kmh E 2.2 mph3.5 kmh 29.80 in1009.1 mb 0.00 in0.0 mm 0.00 in0.0 mm 0.00 in0.0 mm
08:05 AM 81.5°F27.5°C 54.8°F12.7°C 40% 3.8 mph NE6.1 kmh NE 4.5 mph7.2 kmh 29.80 in1009.1 mb 0.00 in0.0 mm 0.00 in0.0 mm 0.00 in0.0 mm
08:04 AM 81.5°F27.5°C 54.1°F12.3°C 39% 1.3 mph E2.1 kmh E 3.4 mph5.5 kmh 29.80 in1009.1 mb 0.00 in0.0 mm 0.00 in0.0 mm 0.00 in0.0 mm
08:03 AM 81.7°F27.6°C 54.3°F12.4°C 39% 3.8 mph ENE6.1 kmh ENE 4.5 mph7.2 kmh 29.80 in1009.1 mb 0.00 in0.0 mm 0.00 in0.0 mm 0.00 in0.0 mm
08:02 AM 81.7°F27.6°C 53.6°F12.0°C 38% 3.8 mph N6.1 kmh N 4.5 mph7.2 kmh 29.80 in1009.1 mb 0.00 in0.0 mm 0.00 in0.0 mm 0.00 in0.0 mm
08:00 AM 81.5°F27.5°C 54.1°F12.3°C 39% 2.9 mph NE4.7 kmh NE 3.4 mph5.5 kmh 29.80 in1009.1 mb 0.00 in0.0 mm 0.00 in0.0 mm 0.00 in0.0 mm
07:59 AM 81.7°F27.6°C 55.0°F12.8°C 40% 2.5 mph E4.0 kmh E 3.4 mph5.5 kmh 29.80 in1009.1 mb 0.00 in0.0 mm 0.00 in0.0 mm 0.00 in0.0 mm
07:58 AM 81.9°F27.7°C 55.2°F12.9°C 40% 4.5 mph NE7.2 kmh NE 5.8 mph9.3 kmh 29.80 in1009.1 mb 0.00 in0.0 mm 0.00 in0.0 mm 0.00 in0.0 mm
07:57 AM 81.9°F27.7°C 54.5°F12.5°C 39% 2.9 mph SE4.7 kmh SE 3.4 mph5.5 kmh 29.80 in1009.1 mb 0.00 in0.0 mm 0.00 in0.0 mm 0.00 in0.0 mm
07:56 AM 81.9°F27.7°C 55.9°F13.3°C 41% 0.7 mph E1.1 kmh E 1.1 mph1.8 kmh 29.79 in1008.8 mb 0.00 in0.0 mm 0.00 in0.0 mm 0.00 in0.0 mm
07:55 AM 81.5°F27.5°C 55.5°F13.1°C 41% 0.2 mph ESE0.3 kmh ESE 1.1 mph1.8 kmh 29.80 in1009.1 mb 0.00 in0.0 mm 0.00 in0.0 mm 0.00 in0.0 mm
07:54 AM 81.7°F27.6°C 54.3°F12.4°C 39% 0.4 mph E0.6 kmh E 1.1 mph1.8 kmh 29.80 in1009.1 mb 0.00 in0.0 mm 0.00 in0.0 mm 0.00 in0.0 mm
07:53 AM 81.7°F27.6°C 54.3°F12.4°C 39% 1.8 mph SE2.9 kmh SE 2.2 mph3.5 kmh 29.79 in1008.8 mb 0.00 in0.0 mm 0.00 in0.0 mm 0.00 in0.0 mm
07:52 AM 82.0°F27.8°C 54.6°F12.6°C 39% 2.2 mph NNE3.5 kmh NNE 3.4 mph5.5 kmh 29.80 in1009.1 mb 0.00 in0.0 mm 0.00 in0.0 mm 0.00 in0.0 mm
07:51 AM 82.0°F27.8°C 54.6°F12.6°C 39% 3.1 mph E5.0 kmh E 4.5 mph7.2 kmh 29.80 in1009.1 mb 0.00 in0.0 mm 0.00 in0.0 mm 0.00 in0.0 mm
07:50 AM 81.7°F27.6°C 55.0°F12.8°C 40% Calm Calm -- 29.79 in1008.8 mb 0.00 in0.0 mm 0.00 in0.0 mm 0.00 in0.0 mm
07:49 AM 81.3°F27.4°C 54.6°F12.6°C 40% Calm Calm -- 29.80 in1009.1 mb 0.00 in0.0 mm 0.00 in0.0 mm 0.00 in0.0 mm
07:48 AM 81.3°F27.4°C 56.0°F13.3°C 42% 0.2 mph E0.3 kmh E 1.1 mph1.8 kmh 29.79 in1008.8 mb 0.00 in0.0 mm 0.00 in0.0 mm 0.00 in0.0 mm
07:47 AM 81.3°F27.4°C 55.3°F12.9°C 41% 2.0 mph NE3.2 kmh NE 3.4 mph5.5 kmh 29.80 in1009.1 mb 0.00 in0.0 mm 0.00 in0.0 mm 0.00 in0.0 mm
07:46 AM 81.1°F27.3°C 55.8°F13.2°C 42% 0.9 mph E1.4 kmh E 2.2 mph3.5 kmh 29.80 in1009.1 mb 0.00 in0.0 mm 0.00 in0.0 mm 0.00 in0.0 mm
07:45 AM 81.1°F27.3°C 56.5°F13.6°C 43% Calm Calm -- 29.79 in1008.8 mb 0.00 in0.0 mm 0.00 in0.0 mm 0.00 in0.0 mm
07:44 AM 81.5°F27.5°C 54.8°F12.7°C 40% 1.3 mph ENE2.1 kmh ENE 2.2 mph3.5 kmh 29.80 in1009.1 mb 0.00 in0.0 mm 0.00 in0.0 mm 0.00 in0.0 mm
07:43 AM 82.0°F27.8°C 55.3°F12.9°C 40% 2.0 mph NNE3.2 kmh NNE 2.2 mph3.5 kmh 29.80 in1009.1 mb 0.00 in0.0 mm 0.00 in0.0 mm 0.00 in0.0 mm
07:42 AM 82.2°F27.9°C 56.1°F13.4°C 41% 1.3 mph NE2.1 kmh NE 2.2 mph3.5 kmh 29.80 in1009.1 mb 0.00 in0.0 mm 0.00 in0.0 mm 0.00 in0.0 mm
07:41 AM 82.2°F27.9°C 56.1°F13.4°C 41% 0.4 mph SE0.6 kmh SE 1.1 mph1.8 kmh 29.80 in1009.1 mb 0.00 in0.0 mm 0.00 in0.0 mm 0.00 in0.0 mm
07:40 AM 81.5°F27.5°C 54.8°F12.7°C 40% Calm Calm -- 29.80 in1009.1 mb 0.00 in0.0 mm 0.00 in0.0 mm 0.00 in0.0 mm
07:39 AM 81.5°F27.5°C 54.1°F12.3°C 39% Calm Calm -- 29.80 in1009.1 mb 0.00 in0.0 mm 0.00 in0.0 mm 0.00 in0.0 mm
07:38 AM 81.0°F27.2°C 53.7°F12.1°C 39% Calm Calm -- 29.80 in1009.1 mb 0.00 in0.0 mm 0.00 in0.0 mm 0.00 in0.0 mm
07:37 AM 80.4°F26.9°C 53.8°F12.1°C 40% Calm Calm -- 29.80 in1009.1 mb 0.00 in0.0 mm 0.00 in0.0 mm 0.00 in0.0 mm
07:36 AM 80.4°F26.9°C 55.2°F12.9°C 42% Calm Calm -- 29.80 in1009.1 mb 0.00 in0.0 mm 0.00 in0.0 mm 0.00 in0.0 mm
07:35 AM 80.6°F27.0°C 54.7°F12.6°C 41% 2.0 mph NE3.2 kmh NE 3.4 mph5.5 kmh 29.80 in1009.1 mb 0.00 in0.0 mm 0.00 in0.0 mm 0.00 in0.0 mm
07:34 AM 81.1°F27.3°C 55.1°F12.8°C 41% 3.1 mph E5.0 kmh E 3.4 mph5.5 kmh 29.80 in1009.1 mb 0.00 in0.0 mm 0.00 in0.0 mm 0.00 in0.0 mm
07:32 AM 80.6°F27.0°C 54.7°F12.6°C 41% 0.7 mph E1.1 kmh E 1.1 mph1.8 kmh 29.79 in1008.8 mb 0.00 in0.0 mm 0.00 in0.0 mm 0.00 in0.0 mm
07:31 AM 80.6°F27.0°C 53.3°F11.8°C 39% Calm Calm -- 29.79 in1008.8 mb 0.00 in0.0 mm 0.00 in0.0 mm 0.00 in0.0 mm
07:30 AM 80.6°F27.0°C 54.7°F12.6°C 41% 1.6 mph WSW2.6 kmh WSW 2.2 mph3.5 kmh 29.79 in1008.8 mb 0.00 in0.0 mm 0.00 in0.0 mm 0.00 in0.0 mm
07:29 AM 81.0°F27.2°C 55.1°F12.8°C 41% 1.6 mph NE2.6 kmh NE 2.2 mph3.5 kmh 29.79 in1008.8 mb 0.00 in0.0 mm 0.00 in0.0 mm 0.00 in0.0 mm
07:28 AM 81.1°F27.3°C 55.1°F12.8°C 41% 2.2 mph NE3.5 kmh NE 2.2 mph3.5 kmh 29.79 in1008.8 mb 0.00 in0.0 mm 0.00 in0.0 mm 0.00 in0.0 mm
07:27 AM 81.3°F27.4°C 55.3°F12.9°C 41% 1.3 mph ENE2.1 kmh ENE 2.2 mph3.5 kmh 29.79 in1008.8 mb 0.00 in0.0 mm 0.00 in0.0 mm 0.00 in0.0 mm
07:26 AM 81.3°F27.4°C 56.0°F13.3°C 42% 0.7 mph ENE1.1 kmh ENE 1.1 mph1.8 kmh 29.80 in1009.1 mb 0.00 in0.0 mm 0.00 in0.0 mm 0.00 in0.0 mm
07:25 AM 81.3°F27.4°C 55.3°F12.9°C 41% Calm Calm -- 29.79 in1008.8 mb 0.00 in0.0 mm 0.00 in0.0 mm 0.00 in0.0 mm
07:24 AM 81.0°F27.2°C 55.1°F12.8°C 41% Calm Calm -- 29.79 in1008.8 mb 0.00 in0.0 mm 0.00 in0.0 mm 0.00 in0.0 mm
07:23 AM 81.0°F27.2°C 55.7°F13.2°C 42% Calm Calm -- 29.78 in1008.5 mb 0.00 in0.0 mm 0.00 in0.0 mm 0.00 in0.0 mm
07:22 AM 81.0°F27.2°C 54.4°F12.4°C 40% 1.1 mph WSW1.8 kmh WSW 2.2 mph3.5 kmh 29.79 in1008.8 mb 0.00 in0.0 mm 0.00 in0.0 mm 0.00 in0.0 mm
07:21 AM 81.0°F27.2°C 56.4°F13.6°C 43% 1.3 mph SE2.1 kmh SE 2.2 mph3.5 kmh 29.79 in1008.8 mb 0.00 in0.0 mm 0.00 in0.0 mm 0.00 in0.0 mm
07:20 AM 81.3°F27.4°C 56.0°F13.3°C 42% Calm Calm -- 29.79 in1008.8 mb 0.00 in0.0 mm 0.00 in0.0 mm 0.00 in0.0 mm
07:19 AM 81.5°F27.5°C 54.8°F12.7°C 40% 1.3 mph NE2.1 kmh NE 2.2 mph3.5 kmh 29.79 in1008.8 mb 0.00 in0.0 mm 0.00 in0.0 mm 0.00 in0.0 mm
07:18 AM 81.5°F27.5°C 54.1°F12.3°C 39% 0.9 mph NE1.4 kmh NE 2.2 mph3.5 kmh 29.79 in1008.8 mb 0.00 in0.0 mm 0.00 in0.0 mm 0.00 in0.0 mm
07:17 AM 81.1°F27.3°C 53.8°F12.1°C 39% 0.2 mph ESE0.3 kmh ESE 1.1 mph1.8 kmh 29.79 in1008.8 mb 0.00 in0.0 mm 0.00 in0.0 mm 0.00 in0.0 mm
07:16 AM 80.6°F27.0°C 54.7°F12.6°C 41% Calm Calm -- 29.79 in1008.8 mb 0.00 in0.0 mm 0.00 in0.0 mm 0.00 in0.0 mm
07:15 AM 80.6°F27.0°C 54.7°F12.6°C 41% Calm Calm -- 29.79 in1008.8 mb 0.00 in0.0 mm 0.00 in0.0 mm 0.00 in0.0 mm
07:14 AM 80.8°F27.1°C 54.2°F12.3°C 40% 0.9 mph S1.4 kmh S 1.1 mph1.8 kmh 29.79 in1008.8 mb 0.00 in0.0 mm 0.00 in0.0 mm 0.00 in0.0 mm
07:13 AM 80.8°F27.1°C 54.9°F12.7°C 41% 0.2 mph SSE0.3 kmh SSE 1.1 mph1.8 kmh 29.79 in1008.8 mb 0.00 in0.0 mm 0.00 in0.0 mm 0.00 in0.0 mm
07:12 AM 80.4°F26.9°C 54.5°F12.5°C 41% Calm Calm -- 29.79 in1008.8 mb 0.00 in0.0 mm 0.00 in0.0 mm 0.00 in0.0 mm
07:11 AM 80.2°F26.8°C 53.7°F12.1°C 40% Calm Calm -- 29.79 in1008.8 mb 0.00 in0.0 mm 0.00 in0.0 mm 0.00 in0.0 mm
07:10 AM 79.9°F26.6°C 54.7°F12.6°C 42% Calm Calm -- 29.79 in1008.8 mb 0.00 in0.0 mm 0.00 in0.0 mm 0.00 in0.0 mm
07:09 AM 79.9°F26.6°C 54.1°F12.3°C 41% 1.3 mph NE2.1 kmh NE 2.2 mph3.5 kmh 29.80 in1009.1 mb 0.00 in0.0 mm 0.00 in0.0 mm 0.00 in0.0 mm
07:08 AM 80.1°F26.7°C 54.9°F12.7°C 42% 1.1 mph NE1.8 kmh NE 1.1 mph1.8 kmh 29.79 in1008.8 mb 0.00 in0.0 mm 0.00 in0.0 mm 0.00 in0.0 mm
07:07 AM 80.6°F27.0°C 54.7°F12.6°C 41% 5.1 mph NNE8.2 kmh NNE 8.1 mph13.0 kmh 29.78 in1008.5 mb 0.00 in0.0 mm 0.00 in0.0 mm 0.00 in0.0 mm
07:06 AM 81.0°F27.2°C 55.7°F13.2°C 42% 4.3 mph NNE6.9 kmh NNE 5.8 mph9.3 kmh 29.78 in1008.5 mb 0.00 in0.0 mm 0.00 in0.0 mm 0.00 in0.0 mm
07:05 AM 81.0°F27.2°C 55.1°F12.8°C 41% 1.3 mph ENE2.1 kmh ENE 2.2 mph3.5 kmh 29.79 in1008.8 mb 0.00 in0.0 mm 0.00 in0.0 mm 0.00 in0.0 mm
07:04 AM 80.8°F27.1°C 54.2°F12.3°C 40% Calm Calm -- 29.78 in1008.5 mb 0.00 in0.0 mm 0.00 in0.0 mm 0.00 in0.0 mm
07:03 AM 80.8°F27.1°C 53.5°F11.9°C 39% Calm Calm -- 29.79 in1008.8 mb 0.00 in0.0 mm 0.00 in0.0 mm 0.00 in0.0 mm
07:02 AM 80.8°F27.1°C 54.9°F12.7°C 41% 0.4 mph SE0.6 kmh SE 1.1 mph1.8 kmh 29.79 in1008.8 mb 0.00 in0.0 mm 0.00 in0.0 mm 0.00 in0.0 mm
07:01 AM 80.8°F27.1°C 55.5°F13.1°C 42% 0.2 mph SE0.3 kmh SE 1.1 mph1.8 kmh 29.78 in1008.5 mb 0.00 in0.0 mm 0.00 in0.0 mm 0.00 in0.0 mm
07:00 AM 80.8°F27.1°C 54.2°F12.3°C 40% 1.3 mph E2.1 kmh E 2.2 mph3.5 kmh 29.78 in1008.5 mb 0.00 in0.0 mm 0.00 in0.0 mm 0.00 in0.0 mm
06:59 AM 80.6°F27.0°C 54.7°F12.6°C 41% 0.2 mph E0.3 kmh E 1.1 mph1.8 kmh 29.79 in1008.8 mb 0.00 in0.0 mm 0.00 in0.0 mm 0.00 in0.0 mm
06:58 AM 80.6°F27.0°C 54.7°F12.6°C 41% 0.7 mph SSW1.1 kmh SSW 1.1 mph1.8 kmh 29.78 in1008.5 mb 0.00 in0.0 mm 0.00 in0.0 mm 0.00 in0.0 mm
06:57 AM 80.6°F27.0°C 54.0°F12.2°C 40% Calm Calm -- 29.78 in1008.5 mb 0.00 in0.0 mm 0.00 in0.0 mm 0.00 in0.0 mm
06:56 AM 80.6°F27.0°C 55.4°F13.0°C 42% Calm Calm -- 29.78 in1008.5 mb 0.00 in0.0 mm 0.00 in0.0 mm 0.00 in0.0 mm
06:55 AM 80.6°F27.0°C 55.4°F13.0°C 42% Calm Calm -- 29.78 in1008.5 mb 0.00 in0.0 mm 0.00 in0.0 mm 0.00 in0.0 mm
06:54 AM 80.2°F26.8°C 54.3°F12.4°C 41% Calm Calm -- 29.78 in1008.5 mb 0.00 in0.0 mm 0.00 in0.0 mm 0.00 in0.0 mm
06:53 AM 79.9°F26.6°C 53.4°F11.9°C 40% Calm Calm -- 29.79 in1008.8 mb 0.00 in0.0 mm 0.00 in0.0 mm 0.00 in0.0 mm
06:52 AM 79.7°F26.5°C 53.9°F12.2°C 41% Calm Calm -- 29.78 in1008.5 mb 0.00 in0.0 mm 0.00 in0.0 mm 0.00 in0.0 mm
06:51 AM 79.7°F26.5°C 53.9°F12.2°C 41% Calm Calm -- 29.78 in1008.5 mb 0.00 in0.0 mm 0.00 in0.0 mm 0.00 in0.0 mm
06:50 AM 79.3°F26.3°C 53.5°F11.9°C 41% 0.9 mph W1.4 kmh W 1.1 mph1.8 kmh 29.78 in1008.5 mb 0.00 in0.0 mm 0.00 in0.0 mm 0.00 in0.0 mm
06:49 AM 78.8°F26.0°C 53.1°F11.7°C 41% Calm Calm -- 29.78 in1008.5 mb 0.00 in0.0 mm 0.00 in0.0 mm 0.00 in0.0 mm
06:48 AM 78.6°F25.9°C 53.6°F12.0°C 42% 1.3 mph ESE2.1 kmh ESE 2.2 mph3.5 kmh 29.79 in1008.8 mb 0.00 in0.0 mm 0.00 in0.0 mm 0.00 in0.0 mm
06:47 AM 78.3°F25.7°C 53.9°F12.2°C 43% 1.8 mph E2.9 kmh E 3.4 mph5.5 kmh 29.79 in1008.8 mb 0.00 in0.0 mm 0.00 in0.0 mm 0.00 in0.0 mm
06:46 AM 78.3°F25.7°C 53.9°F12.2°C 43% 0.7 mph N1.1 kmh N 1.1 mph1.8 kmh 29.78 in1008.5 mb 0.00 in0.0 mm 0.00 in0.0 mm 0.00 in0.0 mm
06:45 AM 78.3°F25.7°C 55.2°F12.9°C 45% 1.6 mph N2.6 kmh N 3.4 mph5.5 kmh 29.78 in1008.5 mb 0.00 in0.0 mm 0.00 in0.0 mm 0.00 in0.0 mm
06:44 AM 78.3°F25.7°C 55.2°F12.9°C 45% 0.4 mph WNW0.6 kmh WNW 1.1 mph1.8 kmh 29.79 in1008.8 mb 0.00 in0.0 mm 0.00 in0.0 mm 0.00 in0.0 mm
06:43 AM 78.3°F25.7°C 55.2°F12.9°C 45% Calm Calm -- 29.78 in1008.5 mb 0.00 in0.0 mm 0.00 in0.0 mm 0.00 in0.0 mm
06:42 AM 78.3°F25.7°C 54.6°F12.6°C 44% Calm Calm -- 29.78 in1008.5 mb 0.00 in0.0 mm 0.00 in0.0 mm 0.00 in0.0 mm
06:41 AM 78.3°F25.7°C 55.2°F12.9°C 45% Calm Calm -- 29.78 in1008.5 mb 0.00 in0.0 mm 0.00 in0.0 mm 0.00 in0.0 mm
06:40 AM 78.1°F25.6°C 55.0°F12.8°C 45% Calm Calm -- 29.78 in1008.5 mb 0.00 in0.0 mm 0.00 in0.0 mm 0.00 in0.0 mm
06:39 AM 78.1°F25.6°C 55.0°F12.8°C 45% Calm Calm -- 29.78 in1008.5 mb 0.00 in0.0 mm 0.00 in0.0 mm 0.00 in0.0 mm
06:38 AM 78.1°F25.6°C 54.4°F12.4°C 44% Calm Calm -- 29.78 in1008.5 mb 0.00 in0.0 mm 0.00 in0.0 mm 0.00 in0.0 mm
06:37 AM 78.1°F25.6°C 54.4°F12.4°C 44% 0.4 mph NW0.6 kmh NW 1.1 mph1.8 kmh 29.78 in1008.5 mb 0.00 in0.0 mm 0.00 in0.0 mm 0.00 in0.0 mm
06:36 AM 78.1°F25.6°C 55.0°F12.8°C 45% 0.4 mph NW0.6 kmh NW 1.1 mph1.8 kmh 29.79 in1008.8 mb 0.00 in0.0 mm 0.00 in0.0 mm 0.00 in0.0 mm
06:35 AM 78.1°F25.6°C 55.0°F12.8°C 45% 0.9 mph WNW1.4 kmh WNW 1.1 mph1.8 kmh 29.78 in1008.5 mb 0.00 in0.0 mm 0.00 in0.0 mm 0.00 in0.0 mm
06:34 AM 78.1°F25.6°C 54.4°F12.4°C 44% 0.2 mph NNE0.3 kmh NNE 1.1 mph1.8 kmh 29.78 in1008.5 mb 0.00 in0.0 mm 0.00 in0.0 mm 0.00 in0.0 mm
06:33 AM 78.1°F25.6°C 53.8°F12.1°C 43% 1.8 mph N2.9 kmh N 2.2 mph3.5 kmh 29.78 in1008.5 mb 0.00 in0.0 mm 0.00 in0.0 mm 0.00 in0.0 mm
06:32 AM 77.9°F25.5°C 53.6°F12.0°C 43% 1.1 mph NE1.8 kmh NE 1.1 mph1.8 kmh 29.79 in1008.8 mb 0.00 in0.0 mm 0.00 in0.0 mm 0.00 in0.0 mm
06:31 AM 77.9°F25.5°C 53.6°F12.0°C 43% 2.0 mph NNE3.2 kmh NNE 2.2 mph3.5 kmh 29.78 in1008.5 mb 0.00 in0.0 mm 0.00 in0.0 mm 0.00 in0.0 mm
06:30 AM 77.4°F25.2°C 53.1°F11.7°C 43% Calm Calm -- 29.78 in1008.5 mb 0.00 in0.0 mm 0.00 in0.0 mm 0.00 in0.0 mm
06:29 AM 77.4°F25.2°C 53.1°F11.7°C 43% 1.8 mph NE2.9 kmh NE 2.2 mph3.5 kmh 29.78 in1008.5 mb 0.00 in0.0 mm 0.00 in0.0 mm 0.00 in0.0 mm
06:28 AM 77.4°F25.2°C 54.4°F12.4°C 45% Calm Calm -- 29.78 in1008.5 mb 0.00 in0.0 mm 0.00 in0.0 mm 0.00 in0.0 mm
06:27 AM 77.4°F25.2°C 53.8°F12.1°C 44% 0.9 mph WSW1.4 kmh WSW 1.1 mph1.8 kmh 29.78 in1008.5 mb 0.00 in0.0 mm 0.00 in0.0 mm 0.00 in0.0 mm
06:26 AM 77.4°F25.2°C 53.8°F12.1°C 44% 0.2 mph NW0.3 kmh NW 1.1 mph1.8 kmh 29.78 in1008.5 mb 0.00 in0.0 mm 0.00 in0.0 mm 0.00 in0.0 mm
06:25 AM 77.4°F25.2°C 53.1°F11.7°C 43% 1.6 mph NNW2.6 kmh NNW 2.2 mph3.5 kmh 29.78 in1008.5 mb 0.00 in0.0 mm 0.00 in0.0 mm 0.00 in0.0 mm
06:24 AM 77.4°F25.2°C 53.8°F12.1°C 44% 0.2 mph WNW0.3 kmh WNW 1.1 mph1.8 kmh 29.79 in1008.8 mb 0.00 in0.0 mm 0.00 in0.0 mm 0.00 in0.0 mm
06:23 AM 77.4°F25.2°C 53.8°F12.1°C 44% Calm Calm -- 29.78 in1008.5 mb 0.00 in0.0 mm 0.00 in0.0 mm 0.00 in0.0 mm
06:22 AM 77.4°F25.2°C 53.8°F12.1°C 44% 0.9 mph W1.4 kmh W 1.1 mph1.8 kmh 29.78 in1008.5 mb 0.00 in0.0 mm 0.00 in0.0 mm 0.00 in0.0 mm
06:21 AM 77.4°F25.2°C 53.8°F12.1°C 44% 1.1 mph SW1.8 kmh SW 1.1 mph1.8 kmh 29.78 in1008.5 mb 0.00 in0.0 mm 0.00 in0.0 mm 0.00 in0.0 mm
06:20 AM 77.2°F25.1°C 52.9°F11.6°C 43% 0.2 mph SW0.3 kmh SW 1.1 mph1.8 kmh 29.78 in1008.5 mb 0.00 in0.0 mm 0.00 in0.0 mm 0.00 in0.0 mm
06:19 AM 77.0°F25.0°C 52.8°F11.6°C 43% 1.1 mph WNW1.8 kmh WNW 1.1 mph1.8 kmh 29.78 in1008.5 mb 0.00 in0.0 mm 0.00 in0.0 mm 0.00 in0.0 mm
06:18 AM 76.8°F24.9°C 52.6°F11.4°C 43% 0.9 mph NW1.4 kmh NW 1.1 mph1.8 kmh 29.78 in1008.5 mb 0.00 in0.0 mm 0.00 in0.0 mm 0.00 in0.0 mm
06:17 AM 76.8°F24.9°C 53.2°F11.8°C 44% 0.2 mph WSW0.3 kmh WSW 1.1 mph1.8 kmh 29.78 in1008.5 mb 0.00 in0.0 mm 0.00 in0.0 mm 0.00 in0.0 mm
06:16 AM 77.0°F25.0°C 53.4°F11.9°C 44% 0.7 mph NE1.1 kmh NE 1.1 mph1.8 kmh 29.77 in1008.1 mb 0.00 in0.0 mm 0.00 in0.0 mm 0.00 in0.0 mm
06:15 AM 77.2°F25.1°C 53.6°F12.0°C 44% 0.7 mph NE1.1 kmh NE 1.1 mph1.8 kmh 29.78 in1008.5 mb 0.00 in0.0 mm 0.00 in0.0 mm 0.00 in0.0 mm
06:14 AM 77.2°F25.1°C 53.6°F12.0°C 44% 0.2 mph ENE0.3 kmh ENE 1.1 mph1.8 kmh 29.78 in1008.5 mb 0.00 in0.0 mm 0.00 in0.0 mm 0.00 in0.0 mm
06:13 AM 77.4°F25.2°C 53.8°F12.1°C 44% 0.4 mph ENE0.6 kmh ENE 1.1 mph1.8 kmh 29.78 in1008.5 mb 0.00 in0.0 mm 0.00 in0.0 mm 0.00 in0.0 mm
06:12 AM 77.7°F25.4°C 53.4°F11.9°C 43% 0.2 mph ENE0.3 kmh ENE 1.1 mph1.8 kmh 29.78 in1008.5 mb 0.00 in0.0 mm 0.00 in0.0 mm 0.00 in0.0 mm
06:11 AM 77.5°F25.3°C 52.6°F11.4°C 42% 3.8 mph NE6.1 kmh NE 5.8 mph9.3 kmh 29.78 in1008.5 mb 0.00 in0.0 mm 0.00 in0.0 mm 0.00 in0.0 mm
06:10 AM 77.5°F25.3°C 53.2°F11.8°C 43% 3.8 mph NE6.1 kmh NE 4.5 mph7.2 kmh 29.78 in1008.5 mb 0.00 in0.0 mm 0.00 in0.0 mm 0.00 in0.0 mm
06:09 AM 75.9°F24.4°C 51.1°F10.6°C 42% 2.2 mph N3.5 kmh N 2.2 mph3.5 kmh 29.78 in1008.5 mb 0.00 in0.0 mm 0.00 in0.0 mm 0.00 in0.0 mm
06:08 AM 75.9°F24.4°C 51.8°F11.0°C 43% 4.0 mph NNE6.4 kmh NNE 5.8 mph9.3 kmh 29.78 in1008.5 mb 0.00 in0.0 mm 0.00 in0.0 mm 0.00 in0.0 mm
06:07 AM 75.9°F24.4°C 52.4°F11.3°C 44% 0.7 mph S1.1 kmh S 1.1 mph1.8 kmh 29.78 in1008.5 mb 0.00 in0.0 mm 0.00 in0.0 mm 0.00 in0.0 mm
06:06 AM 76.1°F24.5°C 53.2°F11.8°C 45% Calm Calm -- 29.78 in1008.5 mb 0.00 in0.0 mm 0.00 in0.0 mm 0.00 in0.0 mm
06:05 AM 76.1°F24.5°C 53.2°F11.8°C 45% Calm Calm -- 29.78 in1008.5 mb 0.00 in0.0 mm 0.00 in0.0 mm 0.00 in0.0 mm
06:04 AM 76.3°F24.6°C 53.4°F11.9°C 45% Calm Calm -- 29.78 in1008.5 mb 0.00 in0.0 mm 0.00 in0.0 mm 0.00 in0.0 mm
06:03 AM 75.7°F24.3°C 52.2°F11.2°C 44% 1.3 mph NNW2.1 kmh NNW 2.2 mph3.5 kmh 29.78 in1008.5 mb 0.00 in0.0 mm 0.00 in0.0 mm 0.00 in0.0 mm
06:02 AM 75.4°F24.1°C 52.6°F11.4°C 45% 1.8 mph N2.9 kmh N 3.4 mph5.5 kmh 29.78 in1008.5 mb 0.00 in0.0 mm 0.00 in0.0 mm 0.00 in0.0 mm
06:01 AM 75.4°F24.1°C 53.2°F11.8°C 46% 0.2 mph N0.3 kmh N 1.1 mph1.8 kmh 29.78 in1008.5 mb 0.00 in0.0 mm 0.00 in0.0 mm 0.00 in0.0 mm
06:00 AM 75.4°F24.1°C 53.2°F11.8°C 46% Calm Calm -- 29.78 in1008.5 mb 0.00 in0.0 mm 0.00 in0.0 mm 0.00 in0.0 mm
05:59 AM 75.6°F24.2°C 53.3°F11.8°C 46% Calm Calm -- 29.78 in1008.5 mb 0.00 in0.0 mm 0.00 in0.0 mm 0.00 in0.0 mm
05:58 AM 75.7°F24.3°C 53.4°F11.9°C 46% 0.7 mph N1.1 kmh N 1.1 mph1.8 kmh 29.78 in1008.5 mb 0.00 in0.0 mm 0.00 in0.0 mm 0.00 in0.0 mm
05:57 AM 75.7°F24.3°C 53.4°F11.9°C 46% 1.1 mph N1.8 kmh N 1.1 mph1.8 kmh 29.78 in1008.5 mb 0.00 in0.0 mm 0.00 in0.0 mm 0.00 in0.0 mm
05:56 AM 75.7°F24.3°C 52.2°F11.2°C 44% 0.7 mph W1.1 kmh W 1.1 mph1.8 kmh 29.78 in1008.5 mb 0.00 in0.0 mm 0.00 in0.0 mm 0.00 in0.0 mm
05:55 AM 75.7°F24.3°C 52.8°F11.6°C 45% Calm Calm -- 29.78 in1008.5 mb 0.00 in0.0 mm 0.00 in0.0 mm 0.00 in0.0 mm
05:54 AM 75.7°F24.3°C 52.8°F11.6°C 45% Calm Calm -- 29.78 in1008.5 mb 0.00 in0.0 mm 0.00 in0.0 mm 0.00 in0.0 mm
05:53 AM 75.6°F24.2°C 52.7°F11.5°C 45% 0.7 mph WNW1.1 kmh WNW 1.1 mph1.8 kmh 29.78 in1008.5 mb 0.00 in0.0 mm 0.00 in0.0 mm 0.00 in0.0 mm
05:52 AM 75.4°F24.1°C 52.6°F11.4°C 45% 1.8 mph W2.9 kmh W 2.2 mph3.5 kmh 29.78 in1008.5 mb 0.00 in0.0 mm 0.00 in0.0 mm 0.00 in0.0 mm
05:51 AM 75.0°F23.9°C 52.2°F11.2°C 45% 1.8 mph WSW2.9 kmh WSW 2.2 mph3.5 kmh 29.78 in1008.5 mb 0.00 in0.0 mm 0.00 in0.0 mm 0.00 in0.0 mm
05:50 AM 75.0°F23.9°C 52.2°F11.2°C 45% 1.1 mph WSW1.8 kmh WSW 1.1 mph1.8 kmh 29.78 in1008.5 mb 0.00 in0.0 mm 0.00 in0.0 mm 0.00 in0.0 mm
05:49 AM 75.0°F23.9°C 52.8°F11.6°C 46% 1.1 mph SW1.8 kmh SW 1.1 mph1.8 kmh 29.78 in1008.5 mb 0.00 in0.0 mm 0.00 in0.0 mm 0.00 in0.0 mm
05:48 AM 75.2°F24.0°C 53.0°F11.7°C 46% 1.8 mph W2.9 kmh W 2.2 mph3.5 kmh 29.78 in1008.5 mb 0.00 in0.0 mm 0.00 in0.0 mm 0.00 in0.0 mm
05:47 AM 75.6°F24.2°C 53.3°F11.8°C 46% 1.1 mph W1.8 kmh W 2.2 mph3.5 kmh 29.77 in1008.1 mb 0.00 in0.0 mm 0.00 in0.0 mm 0.00 in0.0 mm
05:46 AM 75.6°F24.2°C 53.3°F11.8°C 46% 1.6 mph W2.6 kmh W 2.2 mph3.5 kmh 29.77 in1008.1 mb 0.00 in0.0 mm 0.00 in0.0 mm 0.00 in0.0 mm
05:45 AM 75.6°F24.2°C 52.7°F11.5°C 45% Calm Calm -- 29.78 in1008.5 mb 0.00 in0.0 mm 0.00 in0.0 mm 0.00 in0.0 mm
05:44 AM 75.6°F24.2°C 52.7°F11.5°C 45% Calm Calm -- 29.78 in1008.5 mb 0.00 in0.0 mm 0.00 in0.0 mm 0.00 in0.0 mm
05:43 AM 75.6°F24.2°C 52.7°F11.5°C 45% 0.2 mph NW0.3 kmh NW 1.1 mph1.8 kmh 29.78 in1008.5 mb 0.00 in0.0 mm 0.00 in0.0 mm 0.00 in0.0 mm
05:42 AM 75.6°F24.2°C 52.7°F11.5°C 45% 2.0 mph NW3.2 kmh NW 2.2 mph3.5 kmh 29.78 in1008.5 mb 0.00 in0.0 mm 0.00 in0.0 mm 0.00 in0.0 mm
05:41 AM 76.1°F24.5°C 53.2°F11.8°C 45% 1.3 mph WNW2.1 kmh WNW 2.2 mph3.5 kmh 29.77 in1008.1 mb 0.00 in0.0 mm 0.00 in0.0 mm 0.00 in0.0 mm
05:40 AM 76.1°F24.5°C 53.2°F11.8°C 45% 1.3 mph W2.1 kmh W 2.2 mph3.5 kmh 29.78 in1008.5 mb 0.00 in0.0 mm 0.00 in0.0 mm 0.00 in0.0 mm
05:39 AM 76.1°F24.5°C 52.6°F11.4°C 44% 2.2 mph NW3.5 kmh NW 2.2 mph3.5 kmh 29.78 in1008.5 mb 0.00 in0.0 mm 0.00 in0.0 mm 0.00 in0.0 mm
05:38 AM 75.9°F24.4°C 52.4°F11.3°C 44% 1.3 mph W2.1 kmh W 2.2 mph3.5 kmh 29.78 in1008.5 mb 0.00 in0.0 mm 0.00 in0.0 mm 0.00 in0.0 mm
05:37 AM 75.7°F24.3°C 52.2°F11.2°C 44% Calm Calm -- 29.78 in1008.5 mb 0.00 in0.0 mm 0.00 in0.0 mm 0.00 in0.0 mm
05:36 AM 75.7°F24.3°C 52.8°F11.6°C 45% 0.9 mph NW1.4 kmh NW 1.1 mph1.8 kmh 29.77 in1008.1 mb 0.00 in0.0 mm 0.00 in0.0 mm 0.00 in0.0 mm
05:35 AM 75.7°F24.3°C 52.8°F11.6°C 45% 0.9 mph NW1.4 kmh NW 1.1 mph1.8 kmh 29.78 in1008.5 mb 0.00 in0.0 mm 0.00 in0.0 mm 0.00 in0.0 mm
05:34 AM 75.9°F24.4°C 53.6°F12.0°C 46% 0.4 mph NW0.6 kmh NW 1.1 mph1.8 kmh 29.78 in1008.5 mb 0.00 in0.0 mm 0.00 in0.0 mm 0.00 in0.0 mm
05:33 AM 76.1°F24.5°C 53.2°F11.8°C 45% 0.9 mph NW1.4 kmh NW 1.1 mph1.8 kmh 29.77 in1008.1 mb 0.00 in0.0 mm 0.00 in0.0 mm 0.00 in0.0 mm
05:32 AM 76.1°F24.5°C 52.6°F11.4°C 44% 0.9 mph NW1.4 kmh NW 1.1 mph1.8 kmh 29.77 in1008.1 mb 0.00 in0.0 mm 0.00 in0.0 mm 0.00 in0.0 mm
05:31 AM 76.1°F24.5°C 52.6°F11.4°C 44% Calm Calm -- 29.77 in1008.1 mb 0.00 in0.0 mm 0.00 in0.0 mm 0.00 in0.0 mm
05:30 AM 75.6°F24.2°C 52.1°F11.2°C 44% 0.7 mph NW1.1 kmh NW 1.1 mph1.8 kmh 29.77 in1008.1 mb 0.00 in0.0 mm 0.00 in0.0 mm 0.00 in0.0 mm
05:29 AM 75.4°F24.1°C 52.0°F11.1°C 44% 1.1 mph NW1.8 kmh NW 1.1 mph1.8 kmh 29.77 in1008.1 mb 0.00 in0.0 mm 0.00 in0.0 mm 0.00 in0.0 mm
05:28 AM 75.6°F24.2°C 53.3°F11.8°C 46% 1.1 mph NW1.8 kmh NW 1.1 mph1.8 kmh 29.78 in1008.5 mb 0.00 in0.0 mm 0.00 in0.0 mm 0.00 in0.0 mm
05:27 AM 75.6°F24.2°C 53.3°F11.8°C 46% 1.1 mph NW1.8 kmh NW 1.1 mph1.8 kmh 29.77 in1008.1 mb 0.00 in0.0 mm 0.00 in0.0 mm 0.00 in0.0 mm
05:26 AM 75.6°F24.2°C 52.7°F11.5°C 45% 1.3 mph NW2.1 kmh NW 2.2 mph3.5 kmh 29.78 in1008.5 mb 0.00 in0.0 mm 0.00 in0.0 mm 0.00 in0.0 mm
05:25 AM 75.7°F24.3°C 52.8°F11.6°C 45% Calm Calm -- 29.77 in1008.1 mb 0.00 in0.0 mm 0.00 in0.0 mm 0.00 in0.0 mm
05:24 AM 75.7°F24.3°C 53.4°F11.9°C 46% Calm Calm -- 29.78 in1008.5 mb 0.00 in0.0 mm 0.00 in0.0 mm 0.00 in0.0 mm
05:23 AM 75.4°F24.1°C 52.6°F11.4°C 45% Calm Calm -- 29.76 in1007.8 mb 0.00 in0.0 mm 0.00 in0.0 mm 0.00 in0.0 mm
05:22 AM 75.2°F24.0°C 52.4°F11.3°C 45% 1.1 mph N1.8 kmh N 1.1 mph1.8 kmh 29.77 in1008.1 mb 0.00 in0.0 mm 0.00 in0.0 mm 0.00 in0.0 mm
05:21 AM 75.2°F24.0°C 53.0°F11.7°C 46% 1.3 mph N2.1 kmh N 2.2 mph3.5 kmh 29.77 in1008.1 mb 0.00 in0.0 mm 0.00 in0.0 mm 0.00 in0.0 mm
05:20 AM 75.2°F24.0°C 53.0°F11.7°C 46% 0.9 mph WNW1.4 kmh WNW 1.1 mph1.8 kmh 29.78 in1008.5 mb 0.00 in0.0 mm 0.00 in0.0 mm 0.00 in0.0 mm
05:19 AM 75.4°F24.1°C 53.2°F11.8°C 46% 1.1 mph WNW1.8 kmh WNW 1.1 mph1.8 kmh 29.78 in1008.5 mb 0.00 in0.0 mm 0.00 in0.0 mm 0.00 in0.0 mm
05:18 AM 75.4°F24.1°C 53.2°F11.8°C 46% 1.1 mph WNW1.8 kmh WNW 2.2 mph3.5 kmh 29.77 in1008.1 mb 0.00 in0.0 mm 0.00 in0.0 mm 0.00 in0.0 mm
05:17 AM 75.4°F24.1°C 52.6°F11.4°C 45% 0.2 mph W0.3 kmh W 1.1 mph1.8 kmh 29.77 in1008.1 mb 0.00 in0.0 mm 0.00 in0.0 mm 0.00 in0.0 mm
05:16 AM 75.6°F24.2°C 52.7°F11.5°C 45% Calm Calm -- 29.77 in1008.1 mb 0.00 in0.0 mm 0.00 in0.0 mm 0.00 in0.0 mm
05:15 AM 75.6°F24.2°C 52.7°F11.5°C 45% Calm Calm -- 29.77 in1008.1 mb 0.00 in0.0 mm 0.00 in0.0 mm 0.00 in0.0 mm
05:14 AM 75.9°F24.4°C 53.6°F12.0°C 46% 0.2 mph W0.3 kmh W 1.1 mph1.8 kmh 29.77 in1008.1 mb 0.00 in0.0 mm 0.00 in0.0 mm 0.00 in0.0 mm
05:13 AM 75.9°F24.4°C 53.6°F12.0°C 46% 0.2 mph W0.3 kmh W 1.1 mph1.8 kmh 29.78 in1008.5 mb 0.00 in0.0 mm 0.00 in0.0 mm 0.00 in0.0 mm
05:12 AM 76.1°F24.5°C 53.2°F11.8°C 45% 1.1 mph WSW1.8 kmh WSW 1.1 mph1.8 kmh 29.77 in1008.1 mb 0.00 in0.0 mm 0.00 in0.0 mm 0.00 in0.0 mm
05:11 AM 76.1°F24.5°C 52.6°F11.4°C 44% 1.1 mph WSW1.8 kmh WSW 1.1 mph1.8 kmh 29.77 in1008.1 mb 0.00 in0.0 mm 0.00 in0.0 mm 0.00 in0.0 mm
05:10 AM 76.6°F24.8°C 53.6°F12.0°C 45% 0.2 mph WSW0.3 kmh WSW 1.1 mph1.8 kmh 29.77 in1008.1 mb 0.00 in0.0 mm 0.00 in0.0 mm 0.00 in0.0 mm
05:09 AM 77.0°F25.0°C 54.0°F12.2°C 45% 0.9 mph WSW1.4 kmh WSW 1.1 mph1.8 kmh 29.77 in1008.1 mb 0.00 in0.0 mm 0.00 in0.0 mm 0.00 in0.0 mm
05:08 AM 77.4°F25.2°C 53.8°F12.1°C 44% 1.1 mph NNW1.8 kmh NNW 1.1 mph1.8 kmh 29.77 in1008.1 mb 0.00 in0.0 mm 0.00 in0.0 mm 0.00 in0.0 mm
05:07 AM 77.4°F25.2°C 53.1°F11.7°C 43% Calm Calm -- 29.78 in1008.5 mb 0.00 in0.0 mm 0.00 in0.0 mm 0.00 in0.0 mm
05:06 AM 77.2°F25.1°C 52.9°F11.6°C 43% 1.1 mph NNE1.8 kmh NNE 1.1 mph1.8 kmh 29.77 in1008.1 mb 0.00 in0.0 mm 0.00 in0.0 mm 0.00 in0.0 mm
05:05 AM 76.5°F24.7°C 52.3°F11.3°C 43% 2.2 mph NE3.5 kmh NE 2.2 mph3.5 kmh 29.77 in1008.1 mb 0.00 in0.0 mm 0.00 in0.0 mm 0.00 in0.0 mm
05:04 AM 76.5°F24.7°C 52.3°F11.3°C 43% 0.7 mph ENE1.1 kmh ENE 1.1 mph1.8 kmh 29.77 in1008.1 mb 0.00 in0.0 mm 0.00 in0.0 mm 0.00 in0.0 mm
05:03 AM 76.5°F24.7°C 52.9°F11.6°C 44% 2.2 mph NW3.5 kmh NW 2.2 mph3.5 kmh 29.78 in1008.5 mb 0.00 in0.0 mm 0.00 in0.0 mm 0.00 in0.0 mm
05:02 AM 76.6°F24.8°C 53.6°F12.0°C 45% 0.7 mph WSW1.1 kmh WSW 1.1 mph1.8 kmh 29.77 in1008.1 mb 0.00 in0.0 mm 0.00 in0.0 mm 0.00 in0.0 mm
05:01 AM 76.6°F24.8°C 53.0°F11.7°C 44% 0.9 mph WSW1.4 kmh WSW 1.1 mph1.8 kmh 29.78 in1008.5 mb 0.00 in0.0 mm 0.00 in0.0 mm 0.00 in0.0 mm
05:00 AM 76.8°F24.9°C 53.2°F11.8°C 44% 0.9 mph WSW1.4 kmh WSW 1.1 mph1.8 kmh 29.77 in1008.1 mb 0.00 in0.0 mm 0.00 in0.0 mm 0.00 in0.0 mm
04:59 AM 76.8°F24.9°C 53.2°F11.8°C 44% 1.1 mph WSW1.8 kmh WSW 1.1 mph1.8 kmh 29.77 in1008.1 mb 0.00 in0.0 mm 0.00 in0.0 mm 0.00 in0.0 mm
04:58 AM 77.0°F25.0°C 53.4°F11.9°C 44% Calm Calm -- 29.77 in1008.1 mb 0.00 in0.0 mm 0.00 in0.0 mm 0.00 in0.0 mm
04:57 AM 77.4°F25.2°C 53.8°F12.1°C 44% Calm Calm -- 29.78 in1008.5 mb 0.00 in0.0 mm 0.00 in0.0 mm 0.00 in0.0 mm
04:56 AM 77.7°F25.4°C 53.4°F11.9°C 43% Calm Calm -- 29.77 in1008.1 mb 0.00 in0.0 mm 0.00 in0.0 mm 0.00 in0.0 mm
04:55 AM 77.7°F25.4°C 53.4°F11.9°C 43% 0.2 mph NNW0.3 kmh NNW 1.1 mph1.8 kmh 29.78 in1008.5 mb 0.00 in0.0 mm 0.00 in0.0 mm 0.00 in0.0 mm
04:54 AM 77.7°F25.4°C 52.8°F11.6°C 42% 0.9 mph N1.4 kmh N 1.1 mph1.8 kmh 29.77 in1008.1 mb 0.00 in0.0 mm 0.00 in0.0 mm 0.00 in0.0 mm
04:53 AM 77.5°F25.3°C 52.6°F11.4°C 42% 0.9 mph NE1.4 kmh NE 1.1 mph1.8 kmh 29.77 in1008.1 mb 0.00 in0.0 mm 0.00 in0.0 mm 0.00 in0.0 mm
04:52 AM 77.4°F25.2°C 53.1°F11.7°C 43% 1.1 mph NNE1.8 kmh NNE 2.2 mph3.5 kmh 29.76 in1007.8 mb 0.00 in0.0 mm 0.00 in0.0 mm 0.00 in0.0 mm
04:51 AM 77.4°F25.2°C 53.1°F11.7°C 43% 1.8 mph E2.9 kmh E 2.2 mph3.5 kmh 29.78 in1008.5 mb 0.00 in0.0 mm 0.00 in0.0 mm 0.00 in0.0 mm
04:50 AM 77.4°F25.2°C 53.1°F11.7°C 43% 1.6 mph NNE2.6 kmh NNE 2.2 mph3.5 kmh 29.77 in1008.1 mb 0.00 in0.0 mm 0.00 in0.0 mm 0.00 in0.0 mm
04:49 AM 77.5°F25.3°C 53.2°F11.8°C 43% 1.3 mph NE2.1 kmh NE 2.2 mph3.5 kmh 29.78 in1008.5 mb 0.00 in0.0 mm 0.00 in0.0 mm 0.00 in0.0 mm
04:48 AM 77.5°F25.3°C 53.2°F11.8°C 43% 0.7 mph NE1.1 kmh NE 1.1 mph1.8 kmh 29.78 in1008.5 mb 0.00 in0.0 mm 0.00 in0.0 mm 0.00 in0.0 mm
04:46 AM 77.4°F25.2°C 52.5°F11.4°C 42% 2.7 mph NNW4.3 kmh NNW 4.5 mph7.2 kmh 29.77 in1008.1 mb 0.00 in0.0 mm 0.00 in0.0 mm 0.00 in0.0 mm
04:45 AM 77.5°F25.3°C 53.2°F11.8°C 43% 1.3 mph NE2.1 kmh NE 2.2 mph3.5 kmh 29.77 in1008.1 mb 0.00 in0.0 mm 0.00 in0.0 mm 0.00 in0.0 mm
04:44 AM 77.4°F25.2°C 53.1°F11.7°C 43% 0.9 mph N1.4 kmh N 1.1 mph1.8 kmh 29.78 in1008.5 mb 0.00 in0.0 mm 0.00 in0.0 mm 0.00 in0.0 mm
04:43 AM 76.5°F24.7°C 51.7°F10.9°C 42% 1.8 mph NE2.9 kmh NE 2.2 mph3.5 kmh 29.77 in1008.1 mb 0.00 in0.0 mm 0.00 in0.0 mm 0.00 in0.0 mm
04:42 AM 76.5°F24.7°C 52.3°F11.3°C 43% 2.2 mph NE3.5 kmh NE 2.2 mph3.5 kmh 29.78 in1008.5 mb 0.00 in0.0 mm 0.00 in0.0 mm 0.00 in0.0 mm
04:41 AM 76.6°F24.8°C 53.6°F12.0°C 45% 0.4 mph WNW0.6 kmh WNW 1.1 mph1.8 kmh 29.77 in1008.1 mb 0.00 in0.0 mm 0.00 in0.0 mm 0.00 in0.0 mm
04:40 AM 76.6°F24.8°C 53.0°F11.7°C 44% 0.9 mph W1.4 kmh W 1.1 mph1.8 kmh 29.77 in1008.1 mb 0.00 in0.0 mm 0.00 in0.0 mm 0.00 in0.0 mm
04:39 AM 76.6°F24.8°C 52.4°F11.3°C 43% 0.9 mph W1.4 kmh W 1.1 mph1.8 kmh 29.77 in1008.1 mb 0.00 in0.0 mm 0.00 in0.0 mm 0.00 in0.0 mm
04:38 AM 76.3°F24.6°C 52.1°F11.2°C 43% 1.1 mph W1.8 kmh W 1.1 mph1.8 kmh 29.77 in1008.1 mb 0.00 in0.0 mm 0.00 in0.0 mm 0.00 in0.0 mm
04:37 AM 75.7°F24.3°C 52.2°F11.2°C 44% 1.1 mph SW1.8 kmh SW 1.1 mph1.8 kmh 29.77 in1008.1 mb 0.00 in0.0 mm 0.00 in0.0 mm 0.00 in0.0 mm
04:36 AM 75.7°F24.3°C 52.2°F11.2°C 44% 1.1 mph SW1.8 kmh SW 1.1 mph1.8 kmh 29.77 in1008.1 mb 0.00 in0.0 mm 0.00 in0.0 mm 0.00 in0.0 mm
04:35 AM 75.7°F24.3°C 52.2°F11.2°C 44% Calm Calm -- 29.77 in1008.1 mb 0.00 in0.0 mm 0.00 in0.0 mm 0.00 in0.0 mm
04:34 AM 75.9°F24.4°C 53.0°F11.7°C 45% Calm Calm -- 29.77 in1008.1 mb 0.00 in0.0 mm 0.00 in0.0 mm 0.00 in0.0 mm
04:33 AM 75.9°F24.4°C 53.0°F11.7°C 45% Calm Calm -- 29.78 in1008.5 mb 0.00 in0.0 mm 0.00 in0.0 mm 0.00 in0.0 mm
04:32 AM 76.3°F24.6°C 53.4°F11.9°C 45% Calm Calm -- 29.78 in1008.5 mb 0.00 in0.0 mm 0.00 in0.0 mm 0.00 in0.0 mm
04:31 AM 76.3°F24.6°C 52.8°F11.6°C 44% Calm Calm -- 29.77 in1008.1 mb 0.00 in0.0 mm 0.00 in0.0 mm 0.00 in0.0 mm
04:30 AM 76.3°F24.6°C 52.8°F11.6°C 44% 1.8 mph WNW2.9 kmh WNW 2.2 mph3.5 kmh 29.77 in1008.1 mb 0.00 in0.0 mm 0.00 in0.0 mm 0.00 in0.0 mm
04:29 AM 76.3°F24.6°C 52.8°F11.6°C 44% 1.3 mph NNW2.1 kmh NNW 2.2 mph3.5 kmh 29.77 in1008.1 mb 0.00 in0.0 mm 0.00 in0.0 mm 0.00 in0.0 mm
04:28 AM 76.5°F24.7°C 52.3°F11.3°C 43% 0.9 mph NW1.4 kmh NW 1.1 mph1.8 kmh 29.78 in1008.5 mb 0.00 in0.0 mm 0.00 in0.0 mm 0.00 in0.0 mm
04:27 AM 76.3°F24.6°C 52.1°F11.2°C 43% 1.1 mph NW1.8 kmh NW 1.1 mph1.8 kmh 29.77 in1008.1 mb 0.00 in0.0 mm 0.00 in0.0 mm 0.00 in0.0 mm
04:26 AM 76.3°F24.6°C 52.1°F11.2°C 43% 0.7 mph N1.1 kmh N 1.1 mph1.8 kmh 29.77 in1008.1 mb 0.00 in0.0 mm 0.00 in0.0 mm 0.00 in0.0 mm
04:25 AM 76.1°F24.5°C 52.0°F11.1°C 43% 0.9 mph N1.4 kmh N 1.1 mph1.8 kmh 29.77 in1008.1 mb 0.00 in0.0 mm 0.00 in0.0 mm 0.00 in0.0 mm
04:24 AM 76.1°F24.5°C 52.0°F11.1°C 43% 2.0 mph NE3.2 kmh NE 2.2 mph3.5 kmh 29.78 in1008.5 mb 0.00 in0.0 mm 0.00 in0.0 mm 0.00 in0.0 mm
04:23 AM 76.1°F24.5°C 52.6°F11.4°C 44% 0.2 mph W0.3 kmh W 1.1 mph1.8 kmh 29.77 in1008.1 mb 0.00 in0.0 mm 0.00 in0.0 mm 0.00 in0.0 mm
04:22 AM 76.1°F24.5°C 52.0°F11.1°C 43% 0.7 mph NNW1.1 kmh NNW 1.1 mph1.8 kmh 29.78 in1008.5 mb 0.00 in0.0 mm 0.00 in0.0 mm 0.00 in0.0 mm
04:21 AM 76.3°F24.6°C 52.1°F11.2°C 43% Calm Calm -- 29.78 in1008.5 mb 0.00 in0.0 mm 0.00 in0.0 mm 0.00 in0.0 mm
04:20 AM 76.3°F24.6°C 52.1°F11.2°C 43% Calm Calm -- 29.77 in1008.1 mb 0.00 in0.0 mm 0.00 in0.0 mm 0.00 in0.0 mm
04:19 AM 76.3°F24.6°C 52.1°F11.2°C 43% Calm Calm -- 29.78 in1008.5 mb 0.00 in0.0 mm 0.00 in0.0 mm 0.00 in0.0 mm
04:18 AM 76.1°F24.5°C 51.3°F10.7°C 42% 0.2 mph N0.3 kmh N 1.1 mph1.8 kmh 29.78 in1008.5 mb 0.00 in0.0 mm 0.00 in0.0 mm 0.00 in0.0 mm
04:17 AM 76.1°F24.5°C 52.0°F11.1°C 43% 1.8 mph N2.9 kmh N 2.2 mph3.5 kmh 29.77 in1008.1 mb 0.00 in0.0 mm 0.00 in0.0 mm 0.00 in0.0 mm
04:16 AM 76.1°F24.5°C 52.0°F11.1°C 43% 1.3 mph W2.1 kmh W 2.2 mph3.5 kmh 29.78 in1008.5 mb 0.00 in0.0 mm 0.00 in0.0 mm 0.00 in0.0 mm
04:15 AM 76.3°F24.6°C 52.1°F11.2°C 43% 0.2 mph SW0.3 kmh SW 1.1 mph1.8 kmh 29.78 in1008.5 mb 0.00 in0.0 mm 0.00 in0.0 mm 0.00 in0.0 mm
04:14 AM 76.5°F24.7°C 52.3°F11.3°C 43% 0.7 mph SW1.1 kmh SW 1.1 mph1.8 kmh 29.77 in1008.1 mb 0.00 in0.0 mm 0.00 in0.0 mm 0.00 in0.0 mm
04:13 AM 76.6°F24.8°C 52.4°F11.3°C 43% 0.9 mph SW1.4 kmh SW 1.1 mph1.8 kmh 29.77 in1008.1 mb 0.00 in0.0 mm 0.00 in0.0 mm 0.00 in0.0 mm
04:12 AM 76.8°F24.9°C 52.0°F11.1°C 42% 0.2 mph SW0.3 kmh SW 1.1 mph1.8 kmh 29.78 in1008.5 mb 0.00 in0.0 mm 0.00 in0.0 mm 0.00 in0.0 mm
04:11 AM 76.8°F24.9°C 52.0°F11.1°C 42% 0.9 mph W1.4 kmh W 1.1 mph1.8 kmh 29.77 in1008.1 mb 0.00 in0.0 mm 0.00 in0.0 mm 0.00 in0.0 mm
04:10 AM 76.8°F24.9°C 52.0°F11.1°C 42% 0.9 mph NW1.4 kmh NW 1.1 mph1.8 kmh 29.77 in1008.1 mb 0.00 in0.0 mm 0.00 in0.0 mm 0.00 in0.0 mm
04:09 AM 76.3°F24.6°C 51.5°F10.8°C 42% 0.7 mph NE1.1 kmh NE 1.1 mph1.8 kmh 29.77 in1008.1 mb 0.00 in0.0 mm 0.00 in0.0 mm 0.00 in0.0 mm
04:08 AM 76.3°F24.6°C 51.5°F10.8°C 42% 1.3 mph NE2.1 kmh NE 2.2 mph3.5 kmh 29.77 in1008.1 mb 0.00 in0.0 mm 0.00 in0.0 mm 0.00 in0.0 mm
04:07 AM 76.3°F24.6°C 52.1°F11.2°C 43% 0.7 mph NE1.1 kmh NE 1.1 mph1.8 kmh 29.77 in1008.1 mb 0.00 in0.0 mm 0.00 in0.0 mm 0.00 in0.0 mm
04:06 AM 76.5°F24.7°C 52.3°F11.3°C 43% Calm Calm -- 29.77 in1008.1 mb 0.00 in0.0 mm 0.00 in0.0 mm 0.00 in0.0 mm
04:05 AM 76.5°F24.7°C 52.3°F11.3°C 43% Calm Calm -- 29.78 in1008.5 mb 0.00 in0.0 mm 0.00 in0.0 mm 0.00 in0.0 mm
04:04 AM 76.8°F24.9°C 52.6°F11.4°C 43% 0.7 mph NE1.1 kmh NE 1.1 mph1.8 kmh 29.77 in1008.1 mb 0.00 in0.0 mm 0.00 in0.0 mm 0.00 in0.0 mm
04:03 AM 76.8°F24.9°C 52.6°F11.4°C 43% 2.0 mph N3.2 kmh N 3.4 mph5.5 kmh 29.77 in1008.1 mb 0.00 in0.0 mm 0.00 in0.0 mm 0.00 in0.0 mm
04:02 AM 76.8°F24.9°C 52.0°F11.1°C 42% 2.5 mph N4.0 kmh N 3.4 mph5.5 kmh 29.78 in1008.5 mb 0.00 in0.0 mm 0.00 in0.0 mm 0.00 in0.0 mm
04:01 AM 77.2°F25.1°C 52.3°F11.3°C 42% 0.2 mph NE0.3 kmh NE 1.1 mph1.8 kmh 29.78 in1008.5 mb 0.00 in0.0 mm 0.00 in0.0 mm 0.00 in0.0 mm
04:00 AM 77.5°F25.3°C 52.6°F11.4°C 42% 2.2 mph NE3.5 kmh NE 2.2 mph3.5 kmh 29.77 in1008.1 mb 0.00 in0.0 mm 0.00 in0.0 mm 0.00 in0.0 mm
03:59 AM 77.5°F25.3°C 51.9°F11.1°C 41% Calm Calm -- 29.77 in1008.1 mb 0.00 in0.0 mm 0.00 in0.0 mm 0.00 in0.0 mm
03:58 AM 77.5°F25.3°C 51.9°F11.1°C 41% 1.1 mph NE1.8 kmh NE 1.1 mph1.8 kmh 29.77 in1008.1 mb 0.00 in0.0 mm 0.00 in0.0 mm 0.00 in0.0 mm
03:57 AM 77.5°F25.3°C 51.9°F11.1°C 41% 1.1 mph ENE1.8 kmh ENE 1.1 mph1.8 kmh 29.77 in1008.1 mb 0.00 in0.0 mm 0.00 in0.0 mm 0.00 in0.0 mm
03:56 AM 77.9°F25.5°C 52.3°F11.3°C 41% Calm Calm -- 29.77 in1008.1 mb 0.00 in0.0 mm 0.00 in0.0 mm 0.00 in0.0 mm
03:55 AM 78.1°F25.6°C 52.5°F11.4°C 41% Calm Calm -- 29.78 in1008.5 mb 0.00 in0.0 mm 0.00 in0.0 mm 0.00 in0.0 mm
03:54 AM 78.1°F25.6°C 52.5°F11.4°C 41% Calm Calm -- 29.77 in1008.1 mb 0.00 in0.0 mm 0.00 in0.0 mm 0.00 in0.0 mm
03:53 AM 78.3°F25.7°C 52.0°F11.1°C 40% 1.3 mph NE2.1 kmh NE 2.2 mph3.5 kmh 29.77 in1008.1 mb 0.00 in0.0 mm 0.00 in0.0 mm 0.00 in0.0 mm
03:52 AM 78.4°F25.8°C 52.1°F11.2°C 40% 1.3 mph NNE2.1 kmh NNE 2.2 mph3.5 kmh 29.77 in1008.1 mb 0.00 in0.0 mm 0.00 in0.0 mm 0.00 in0.0 mm
03:51 AM 78.4°F25.8°C 52.1°F11.2°C 40% 0.9 mph NE1.4 kmh NE 1.1 mph1.8 kmh 29.77 in1008.1 mb 0.00 in0.0 mm 0.00 in0.0 mm 0.00 in0.0 mm
03:50 AM 78.3°F25.7°C 51.3°F10.7°C 39% 2.5 mph NE4.0 kmh NE 3.4 mph5.5 kmh 29.77 in1008.1 mb 0.00 in0.0 mm 0.00 in0.0 mm 0.00 in0.0 mm
03:49 AM 78.3°F25.7°C 52.0°F11.1°C 40% 2.2 mph NNE3.5 kmh NNE 3.4 mph5.5 kmh 29.77 in1008.1 mb 0.00 in0.0 mm 0.00 in0.0 mm 0.00 in0.0 mm
03:48 AM 78.3°F25.7°C 52.0°F11.1°C 40% 2.2 mph N3.5 kmh N 3.4 mph5.5 kmh 29.78 in1008.5 mb 0.00 in0.0 mm 0.00 in0.0 mm 0.00 in0.0 mm
03:47 AM 78.3°F25.7°C 52.0°F11.1°C 40% 2.0 mph NE3.2 kmh NE 3.4 mph5.5 kmh 29.78 in1008.5 mb 0.00 in0.0 mm 0.00 in0.0 mm 0.00 in0.0 mm
03:46 AM 78.3°F25.7°C 52.0°F11.1°C 40% 2.9 mph SE4.7 kmh SE 4.5 mph7.2 kmh 29.77 in1008.1 mb 0.00 in0.0 mm 0.00 in0.0 mm 0.00 in0.0 mm
03:45 AM 78.3°F25.7°C 51.3°F10.7°C 39% 2.7 mph NNE4.3 kmh NNE 4.5 mph7.2 kmh 29.77 in1008.1 mb 0.00 in0.0 mm 0.00 in0.0 mm 0.00 in0.0 mm
03:44 AM 78.4°F25.8°C 52.1°F11.2°C 40% 2.2 mph N3.5 kmh N 2.2 mph3.5 kmh 29.77 in1008.1 mb 0.00 in0.0 mm 0.00 in0.0 mm 0.00 in0.0 mm
03:43 AM 78.4°F25.8°C 52.1°F11.2°C 40% 0.2 mph E0.3 kmh E 1.1 mph1.8 kmh 29.78 in1008.5 mb 0.00 in0.0 mm 0.00 in0.0 mm 0.00 in0.0 mm
03:42 AM 78.4°F25.8°C 51.4°F10.8°C 39% 1.1 mph E1.8 kmh E 1.1 mph1.8 kmh 29.77 in1008.1 mb 0.00 in0.0 mm 0.00 in0.0 mm 0.00 in0.0 mm
03:41 AM 78.4°F25.8°C 52.1°F11.2°C 40% 4.3 mph NNE6.9 kmh NNE 5.8 mph9.3 kmh 29.78 in1008.5 mb 0.00 in0.0 mm 0.00 in0.0 mm 0.00 in0.0 mm
03:40 AM 78.4°F25.8°C 51.4°F10.8°C 39% 2.2 mph N3.5 kmh N 2.2 mph3.5 kmh 29.77 in1008.1 mb 0.00 in0.0 mm 0.00 in0.0 mm 0.00 in0.0 mm
03:39 AM 78.6°F25.9°C 51.5°F10.8°C 39% 2.5 mph NNE4.0 kmh NNE 3.4 mph5.5 kmh 29.78 in1008.5 mb 0.00 in0.0 mm 0.00 in0.0 mm 0.00 in0.0 mm
03:38 AM 78.8°F26.0°C 51.7°F10.9°C 39% 3.1 mph NNE5.0 kmh NNE 3.4 mph5.5 kmh 29.77 in1008.1 mb 0.00 in0.0 mm 0.00 in0.0 mm 0.00 in0.0 mm
03:37 AM 78.8°F26.0°C 51.7°F10.9°C 39% 1.8 mph ENE2.9 kmh ENE 2.2 mph3.5 kmh 29.77 in1008.1 mb 0.00 in0.0 mm 0.00 in0.0 mm 0.00 in0.0 mm
03:36 AM 79.0°F26.1°C 51.9°F11.1°C 39% 1.3 mph NE2.1 kmh NE 2.2 mph3.5 kmh 29.78 in1008.5 mb 0.00 in0.0 mm 0.00 in0.0 mm 0.00 in0.0 mm
03:35 AM 79.0°F26.1°C 51.9°F11.1°C 39% 2.9 mph NE4.7 kmh NE 4.5 mph7.2 kmh 29.77 in1008.1 mb 0.00 in0.0 mm 0.00 in0.0 mm 0.00 in0.0 mm
03:34 AM 78.8°F26.0°C 51.7°F10.9°C 39% 2.9 mph NNE4.7 kmh NNE 3.4 mph5.5 kmh 29.78 in1008.5 mb 0.00 in0.0 mm 0.00 in0.0 mm 0.00 in0.0 mm
03:33 AM 78.6°F25.9°C 51.5°F10.8°C 39% 4.5 mph NNE7.2 kmh NNE 5.8 mph9.3 kmh 29.78 in1008.5 mb 0.00 in0.0 mm 0.00 in0.0 mm 0.00 in0.0 mm
03:32 AM 78.6°F25.9°C 51.5°F10.8°C 39% 1.8 mph ENE2.9 kmh ENE 2.2 mph3.5 kmh 29.78 in1008.5 mb 0.00 in0.0 mm 0.00 in0.0 mm 0.00 in0.0 mm
03:31 AM 78.6°F25.9°C 51.5°F10.8°C 39% 1.1 mph NE1.8 kmh NE 2.2 mph3.5 kmh 29.77 in1008.1 mb 0.00 in0.0 mm 0.00 in0.0 mm 0.00 in0.0 mm
03:30 AM 78.6°F25.9°C 51.5°F10.8°C 39% 1.3 mph NNE2.1 kmh NNE 2.2 mph3.5 kmh 29.77 in1008.1 mb 0.00 in0.0 mm 0.00 in0.0 mm 0.00 in0.0 mm
03:29 AM 78.8°F26.0°C 51.7°F10.9°C 39% 2.7 mph NE4.3 kmh NE 3.4 mph5.5 kmh 29.78 in1008.5 mb 0.00 in0.0 mm 0.00 in0.0 mm 0.00 in0.0 mm
03:28 AM 78.8°F26.0°C 51.7°F10.9°C 39% 2.0 mph N3.2 kmh N 2.2 mph3.5 kmh 29.78 in1008.5 mb 0.00 in0.0 mm 0.00 in0.0 mm 0.00 in0.0 mm
03:27 AM 78.8°F26.0°C 51.7°F10.9°C 39% 0.7 mph NNW1.1 kmh NNW 1.1 mph1.8 kmh 29.77 in1008.1 mb 0.00 in0.0 mm 0.00 in0.0 mm 0.00 in0.0 mm
03:26 AM 78.8°F26.0°C 51.0°F10.6°C 38% 2.2 mph NNE3.5 kmh NNE 3.4 mph5.5 kmh 29.78 in1008.5 mb 0.00 in0.0 mm 0.00 in0.0 mm 0.00 in0.0 mm
03:25 AM 79.0°F26.1°C 51.9°F11.1°C 39% 5.8 mph NNE9.3 kmh NNE 6.9 mph11.1 kmh 29.78 in1008.5 mb 0.00 in0.0 mm 0.00 in0.0 mm 0.00 in0.0 mm
03:24 AM 79.0°F26.1°C 51.9°F11.1°C 39% 1.8 mph ENE2.9 kmh ENE 2.2 mph3.5 kmh 29.78 in1008.5 mb 0.00 in0.0 mm 0.00 in0.0 mm 0.00 in0.0 mm
03:23 AM 78.3°F25.7°C 50.6°F10.3°C 38% 2.5 mph ENE4.0 kmh ENE 3.4 mph5.5 kmh 29.78 in1008.5 mb 0.00 in0.0 mm 0.00 in0.0 mm 0.00 in0.0 mm
03:22 AM 77.9°F25.5°C 50.9°F10.5°C 39% 9.6 mph N15.4 kmh N 11.4 mph18.3 kmh 29.77 in1008.1 mb 0.00 in0.0 mm 0.00 in0.0 mm 0.00 in0.0 mm
03:21 AM 77.2°F25.1°C 50.3°F10.2°C 39% 2.5 mph N4.0 kmh N 3.4 mph5.5 kmh 29.78 in1008.5 mb 0.00 in0.0 mm 0.00 in0.0 mm 0.00 in0.0 mm
03:20 AM 77.2°F25.1°C 51.0°F10.6°C 40% 3.1 mph NNE5.0 kmh NNE 4.5 mph7.2 kmh 29.78 in1008.5 mb 0.00 in0.0 mm 0.00 in0.0 mm 0.00 in0.0 mm
03:19 AM 77.2°F25.1°C 51.7°F10.9°C 41% 0.7 mph NNW1.1 kmh NNW 1.1 mph1.8 kmh 29.77 in1008.1 mb 0.00 in0.0 mm 0.00 in0.0 mm 0.00 in0.0 mm
03:18 AM 77.2°F25.1°C 51.0°F10.6°C 40% Calm Calm -- 29.78 in1008.5 mb 0.00 in0.0 mm 0.00 in0.0 mm 0.00 in0.0 mm
03:17 AM 77.0°F25.0°C 50.8°F10.4°C 40% Calm Calm -- 29.78 in1008.5 mb 0.00 in0.0 mm 0.00 in0.0 mm 0.00 in0.0 mm
03:16 AM 77.0°F25.0°C 50.8°F10.4°C 40% 0.2 mph N0.3 kmh N 1.1 mph1.8 kmh 29.78 in1008.5 mb 0.00 in0.0 mm 0.00 in0.0 mm 0.00 in0.0 mm
03:15 AM 77.2°F25.1°C 51.7°F10.9°C 41% 0.2 mph NE0.3 kmh NE 1.1 mph1.8 kmh 29.77 in1008.1 mb 0.00 in0.0 mm 0.00 in0.0 mm 0.00 in0.0 mm
03:14 AM 77.2°F25.1°C 51.7°F10.9°C 41% 0.2 mph NE0.3 kmh NE 1.1 mph1.8 kmh 29.77 in1008.1 mb 0.00 in0.0 mm 0.00 in0.0 mm 0.00 in0.0 mm
03:13 AM 77.4°F25.2°C 51.8°F11.0°C 41% 1.1 mph W1.8 kmh W 1.1 mph1.8 kmh 29.77 in1008.1 mb 0.00 in0.0 mm 0.00 in0.0 mm 0.00 in0.0 mm
03:12 AM 77.5°F25.3°C 51.9°F11.1°C 41% 0.7 mph N1.1 kmh N 1.1 mph1.8 kmh 29.77 in1008.1 mb 0.00 in0.0 mm 0.00 in0.0 mm 0.00 in0.0 mm
03:11 AM 77.5°F25.3°C 51.9°F11.1°C 41% 1.3 mph NE2.1 kmh NE 2.2 mph3.5 kmh 29.78 in1008.5 mb 0.00 in0.0 mm 0.00 in0.0 mm 0.00 in0.0 mm
03:10 AM 77.7°F25.4°C 51.4°F10.8°C 40% 0.9 mph NE1.4 kmh NE 1.1 mph1.8 kmh 29.77 in1008.1 mb 0.00 in0.0 mm 0.00 in0.0 mm 0.00 in0.0 mm
03:09 AM 77.7°F25.4°C 51.4°F10.8°C 40% Calm Calm -- 29.78 in1008.5 mb 0.00 in0.0 mm 0.00 in0.0 mm 0.00 in0.0 mm
03:08 AM 77.4°F25.2°C 50.5°F10.3°C 39% Calm Calm -- 29.78 in1008.5 mb 0.00 in0.0 mm 0.00 in0.0 mm 0.00 in0.0 mm
03:07 AM 77.4°F25.2°C 51.2°F10.7°C 40% 0.9 mph E1.4 kmh E 1.1 mph1.8 kmh 29.77 in1008.1 mb 0.00 in0.0 mm 0.00 in0.0 mm 0.00 in0.0 mm
03:06 AM 77.5°F25.3°C 51.3°F10.7°C 40% Calm Calm -- 29.77 in1008.1 mb 0.00 in0.0 mm 0.00 in0.0 mm 0.00 in0.0 mm
03:05 AM 77.5°F25.3°C 51.3°F10.7°C 40% 0.2 mph SW0.3 kmh SW 1.1 mph1.8 kmh 29.77 in1008.1 mb 0.00 in0.0 mm 0.00 in0.0 mm 0.00 in0.0 mm
03:04 AM 77.5°F25.3°C 51.3°F10.7°C 40% 1.6 mph SW2.6 kmh SW 2.2 mph3.5 kmh 29.78 in1008.5 mb 0.00 in0.0 mm 0.00 in0.0 mm 0.00 in0.0 mm
03:03 AM 77.5°F25.3°C 50.6°F10.3°C 39% 0.9 mph S1.4 kmh S 1.1 mph1.8 kmh 29.78 in1008.5 mb 0.00 in0.0 mm 0.00 in0.0 mm 0.00 in0.0 mm
03:02 AM 77.5°F25.3°C 51.3°F10.7°C 40% 0.2 mph N0.3 kmh N 1.1 mph1.8 kmh 29.77 in1008.1 mb 0.00 in0.0 mm 0.00 in0.0 mm 0.00 in0.0 mm
03:01 AM 77.5°F25.3°C 51.3°F10.7°C 40% 0.7 mph SW1.1 kmh SW 1.1 mph1.8 kmh 29.78 in1008.5 mb 0.00 in0.0 mm 0.00 in0.0 mm 0.00 in0.0 mm
03:00 AM 77.5°F25.3°C 51.3°F10.7°C 40% 3.4 mph N5.5 kmh N 4.5 mph7.2 kmh 29.78 in1008.5 mb 0.00 in0.0 mm 0.00 in0.0 mm 0.00 in0.0 mm
02:59 AM 77.7°F25.4°C 51.4°F10.8°C 40% 0.7 mph N1.1 kmh N 1.1 mph1.8 kmh 29.77 in1008.1 mb 0.00 in0.0 mm 0.00 in0.0 mm 0.00 in0.0 mm
02:58 AM 78.3°F25.7°C 51.3°F10.7°C 39% 0.4 mph W0.6 kmh W 1.1 mph1.8 kmh 29.77 in1008.1 mb 0.00 in0.0 mm 0.00 in0.0 mm 0.00 in0.0 mm
02:57 AM 78.6°F25.9°C 52.2°F11.2°C 40% 0.9 mph W1.4 kmh W 1.1 mph1.8 kmh 29.78 in1008.5 mb 0.00 in0.0 mm 0.00 in0.0 mm 0.00 in0.0 mm
02:56 AM 79.0°F26.1°C 51.9°F11.1°C 39% Calm Calm -- 29.78 in1008.5 mb 0.00 in0.0 mm 0.00 in0.0 mm 0.00 in0.0 mm
02:55 AM 79.2°F26.2°C 51.4°F10.8°C 38% Calm Calm -- 29.78 in1008.5 mb 0.00 in0.0 mm 0.00 in0.0 mm 0.00 in0.0 mm
02:54 AM 79.2°F26.2°C 51.4°F10.8°C 38% Calm Calm -- 29.78 in1008.5 mb 0.00 in0.0 mm 0.00 in0.0 mm 0.00 in0.0 mm
02:53 AM 78.8°F26.0°C 50.3°F10.2°C 37% 2.0 mph NE3.2 kmh NE 2.2 mph3.5 kmh 29.78 in1008.5 mb 0.00 in0.0 mm 0.00 in0.0 mm 0.00 in0.0 mm
02:52 AM 78.8°F26.0°C 51.0°F10.6°C 38% 1.8 mph NE2.9 kmh NE 3.4 mph5.5 kmh 29.78 in1008.5 mb 0.00 in0.0 mm 0.00 in0.0 mm 0.00 in0.0 mm
02:51 AM 78.8°F26.0°C 51.0°F10.6°C 38% 0.7 mph NNE1.1 kmh NNE 2.2 mph3.5 kmh 29.78 in1008.5 mb 0.00 in0.0 mm 0.00 in0.0 mm 0.00 in0.0 mm
02:50 AM 78.6°F25.9°C 50.8°F10.4°C 38% 0.7 mph ENE1.1 kmh ENE 1.1 mph1.8 kmh 29.78 in1008.5 mb 0.00 in0.0 mm 0.00 in0.0 mm 0.00 in0.0 mm
02:49 AM 78.3°F25.7°C 50.6°F10.3°C 38% 2.9 mph E4.7 kmh E 5.8 mph9.3 kmh 29.77 in1008.1 mb 0.00 in0.0 mm 0.00 in0.0 mm 0.00 in0.0 mm
02:48 AM 78.3°F25.7°C 50.6°F10.3°C 38% 3.4 mph NE5.5 kmh NE 5.8 mph9.3 kmh 29.77 in1008.1 mb 0.00 in0.0 mm 0.00 in0.0 mm 0.00 in0.0 mm
02:47 AM 78.3°F25.7°C 51.3°F10.7°C 39% 1.3 mph NE2.1 kmh NE 2.2 mph3.5 kmh 29.77 in1008.1 mb 0.00 in0.0 mm 0.00 in0.0 mm 0.00 in0.0 mm
02:46 AM 78.3°F25.7°C 51.3°F10.7°C 39% 0.9 mph NNE1.4 kmh NNE 1.1 mph1.8 kmh 29.78 in1008.5 mb 0.00 in0.0 mm 0.00 in0.0 mm 0.00 in0.0 mm
02:45 AM 78.4°F25.8°C 50.7°F10.4°C 38% 0.9 mph NE1.4 kmh NE 1.1 mph1.8 kmh 29.77 in1008.1 mb 0.00 in0.0 mm 0.00 in0.0 mm 0.00 in0.0 mm
02:44 AM 78.4°F25.8°C 51.4°F10.8°C 39% 1.1 mph NNE1.8 kmh NNE 1.1 mph1.8 kmh 29.78 in1008.5 mb 0.00 in0.0 mm 0.00 in0.0 mm 0.00 in0.0 mm
02:43 AM 78.4°F25.8°C 50.7°F10.4°C 38% Calm Calm -- 29.78 in1008.5 mb 0.00 in0.0 mm 0.00 in0.0 mm 0.00 in0.0 mm
02:42 AM 78.6°F25.9°C 50.8°F10.4°C 38% 2.0 mph NE3.2 kmh NE 2.2 mph3.5 kmh 29.78 in1008.5 mb 0.00 in0.0 mm 0.00 in0.0 mm 0.00 in0.0 mm
02:41 AM 78.6°F25.9°C 50.8°F10.4°C 38% 2.0 mph ENE3.2 kmh ENE 3.4 mph5.5 kmh 29.77 in1008.1 mb 0.00 in0.0 mm 0.00 in0.0 mm 0.00 in0.0 mm
02:40 AM 79.0°F26.1°C 51.9°F11.1°C 39% 2.0 mph NE3.2 kmh NE 3.4 mph5.5 kmh 29.78 in1008.5 mb 0.00 in0.0 mm 0.00 in0.0 mm 0.00 in0.0 mm
02:39 AM 79.2°F26.2°C 51.4°F10.8°C 38% 1.8 mph N2.9 kmh N 2.2 mph3.5 kmh 29.77 in1008.1 mb 0.00 in0.0 mm 0.00 in0.0 mm 0.00 in0.0 mm
02:38 AM 79.2°F26.2°C 50.7°F10.4°C 37% 1.3 mph NNE2.1 kmh NNE 2.2 mph3.5 kmh 29.78 in1008.5 mb 0.00 in0.0 mm 0.00 in0.0 mm 0.00 in0.0 mm
02:37 AM 79.0°F26.1°C 50.5°F10.3°C 37% 2.9 mph NNE4.7 kmh NNE 4.5 mph7.2 kmh 29.78 in1008.5 mb 0.00 in0.0 mm 0.00 in0.0 mm 0.00 in0.0 mm
02:36 AM 78.6°F25.9°C 50.8°F10.4°C 38% 2.5 mph NNE4.0 kmh NNE 3.4 mph5.5 kmh 29.78 in1008.5 mb 0.00 in0.0 mm 0.00 in0.0 mm 0.00 in0.0 mm
02:35 AM 78.6°F25.9°C 50.8°F10.4°C 38% 5.4 mph NNE8.7 kmh NNE 6.9 mph11.1 kmh 29.78 in1008.5 mb 0.00 in0.0 mm 0.00 in0.0 mm 0.00 in0.0 mm
02:34 AM 78.3°F25.7°C 50.6°F10.3°C 38% 3.4 mph NE5.5 kmh NE 6.9 mph11.1 kmh 29.77 in1008.1 mb 0.00 in0.0 mm 0.00 in0.0 mm 0.00 in0.0 mm
02:33 AM 78.3°F25.7°C 50.6°F10.3°C 38% 1.8 mph NNE2.9 kmh NNE 2.2 mph3.5 kmh 29.78 in1008.5 mb 0.00 in0.0 mm 0.00 in0.0 mm 0.00 in0.0 mm
02:32 AM 78.3°F25.7°C 51.3°F10.7°C 39% Calm Calm -- 29.77 in1008.1 mb 0.00 in0.0 mm 0.00 in0.0 mm 0.00 in0.0 mm
02:31 AM 78.6°F25.9°C 51.5°F10.8°C 39% 0.4 mph E0.6 kmh E 1.1 mph1.8 kmh 29.78 in1008.5 mb 0.00 in0.0 mm 0.00 in0.0 mm 0.00 in0.0 mm
02:30 AM 79.0°F26.1°C 51.9°F11.1°C 39% Calm Calm -- 29.78 in1008.5 mb 0.00 in0.0 mm 0.00 in0.0 mm 0.00 in0.0 mm
02:29 AM 79.0°F26.1°C 51.2°F10.7°C 38% 0.9 mph WNW1.4 kmh WNW 1.1 mph1.8 kmh 29.78 in1008.5 mb 0.00 in0.0 mm 0.00 in0.0 mm 0.00 in0.0 mm
02:28 AM 78.8°F26.0°C 51.0°F10.6°C 38% 1.8 mph NW2.9 kmh NW 2.2 mph3.5 kmh 29.78 in1008.5 mb 0.00 in0.0 mm 0.00 in0.0 mm 0.00 in0.0 mm
02:27 AM 78.4°F25.8°C 50.7°F10.4°C 38% 1.3 mph NNE2.1 kmh NNE 2.2 mph3.5 kmh 29.78 in1008.5 mb 0.00 in0.0 mm 0.00 in0.0 mm 0.00 in0.0 mm
02:26 AM 78.4°F25.8°C 50.7°F10.4°C 38% 2.2 mph NNE3.5 kmh NNE 2.2 mph3.5 kmh 29.78 in1008.5 mb 0.00 in0.0 mm 0.00 in0.0 mm 0.00 in0.0 mm
02:25 AM 78.4°F25.8°C 50.7°F10.4°C 38% 0.2 mph E0.3 kmh E 1.1 mph1.8 kmh 29.78 in1008.5 mb 0.00 in0.0 mm 0.00 in0.0 mm 0.00 in0.0 mm
02:24 AM 78.6°F25.9°C 51.5°F10.8°C 39% 2.0 mph SSW3.2 kmh SSW 2.2 mph3.5 kmh 29.77 in1008.1 mb 0.00 in0.0 mm 0.00 in0.0 mm 0.00 in0.0 mm
02:23 AM 78.4°F25.8°C 50.7°F10.4°C 38% Calm Calm -- 29.78 in1008.5 mb 0.00 in0.0 mm 0.00 in0.0 mm 0.00 in0.0 mm
02:22 AM 78.3°F25.7°C 50.6°F10.3°C 38% 1.6 mph NNE2.6 kmh NNE 3.4 mph5.5 kmh 29.78 in1008.5 mb 0.00 in0.0 mm 0.00 in0.0 mm 0.00 in0.0 mm
02:21 AM 78.3°F25.7°C 50.6°F10.3°C 38% 1.8 mph NNW2.9 kmh NNW 2.2 mph3.5 kmh 29.78 in1008.5 mb 0.00 in0.0 mm 0.00 in0.0 mm 0.00 in0.0 mm
02:20 AM 78.4°F25.8°C 51.4°F10.8°C 39% 0.7 mph NE1.1 kmh NE 1.1 mph1.8 kmh 29.78 in1008.5 mb 0.00 in0.0 mm 0.00 in0.0 mm 0.00 in0.0 mm
02:19 AM 78.4°F25.8°C 51.4°F10.8°C 39% 0.7 mph NE1.1 kmh NE 1.1 mph1.8 kmh 29.78 in1008.5 mb 0.00 in0.0 mm 0.00 in0.0 mm 0.00 in0.0 mm
02:18 AM 78.6°F25.9°C 51.5°F10.8°C 39% 2.9 mph NW4.7 kmh NW 4.5 mph7.2 kmh 29.77 in1008.1 mb 0.00 in0.0 mm 0.00 in0.0 mm 0.00 in0.0 mm
02:17 AM 78.6°F25.9°C 51.5°F10.8°C 39% 0.2 mph ENE0.3 kmh ENE 1.1 mph1.8 kmh 29.77 in1008.1 mb 0.00 in0.0 mm 0.00 in0.0 mm 0.00 in0.0 mm
02:16 AM 78.3°F25.7°C 50.6°F10.3°C 38% 0.7 mph ENE1.1 kmh ENE 2.2 mph3.5 kmh 29.78 in1008.5 mb 0.00 in0.0 mm 0.00 in0.0 mm 0.00 in0.0 mm
02:15 AM 78.3°F25.7°C 51.3°F10.7°C 39% 2.7 mph NE4.3 kmh NE 4.5 mph7.2 kmh 29.78 in1008.5 mb 0.00 in0.0 mm 0.00 in0.0 mm 0.00 in0.0 mm
02:14 AM 78.4°F25.8°C 51.4°F10.8°C 39% 0.4 mph NE0.6 kmh NE 1.1 mph1.8 kmh 29.77 in1008.1 mb 0.00 in0.0 mm 0.00 in0.0 mm 0.00 in0.0 mm
02:13 AM 78.6°F25.9°C 51.5°F10.8°C 39% 1.1 mph NE1.8 kmh NE 2.2 mph3.5 kmh 29.77 in1008.1 mb 0.00 in0.0 mm 0.00 in0.0 mm 0.00 in0.0 mm
02:12 AM 78.6°F25.9°C 51.5°F10.8°C 39% 0.2 mph ENE0.3 kmh ENE 1.1 mph1.8 kmh 29.78 in1008.5 mb 0.00 in0.0 mm 0.00 in0.0 mm 0.00 in0.0 mm
02:11 AM 78.6°F25.9°C 50.8°F10.4°C 38% 4.0 mph NNE6.4 kmh NNE 5.8 mph9.3 kmh 29.77 in1008.1 mb 0.00 in0.0 mm 0.00 in0.0 mm 0.00 in0.0 mm
02:10 AM 78.8°F26.0°C 51.7°F10.9°C 39% 4.3 mph E6.9 kmh E 6.9 mph11.1 kmh 29.78 in1008.5 mb 0.00 in0.0 mm 0.00 in0.0 mm 0.00 in0.0 mm
02:09 AM 79.0°F26.1°C 51.9°F11.1°C 39% 0.2 mph NE0.3 kmh NE 1.1 mph1.8 kmh 29.78 in1008.5 mb 0.00 in0.0 mm 0.00 in0.0 mm 0.00 in0.0 mm
02:08 AM 79.2°F26.2°C 51.4°F10.8°C 38% 0.9 mph WSW1.4 kmh WSW 1.1 mph1.8 kmh 29.78 in1008.5 mb 0.00 in0.0 mm 0.00 in0.0 mm 0.00 in0.0 mm
02:07 AM 79.3°F26.3°C 51.5°F10.8°C 38% 0.7 mph 1.1 kmh 1.1 mph1.8 kmh 29.78 in1008.5 mb 0.00 in0.0 mm 0.00 in0.0 mm 0.00 in0.0 mm
02:06 AM 79.2°F26.2°C 51.4°F10.8°C 38% 0.2 mph N0.3 kmh N 1.1 mph1.8 kmh 29.77 in1008.1 mb 0.00 in0.0 mm 0.00 in0.0 mm 0.00 in0.0 mm
02:05 AM 78.8°F26.0°C 51.0°F10.6°C 38% 3.6 mph WNW5.8 kmh WNW 4.5 mph7.2 kmh 29.78 in1008.5 mb 0.00 in0.0 mm 0.00 in0.0 mm 0.00 in0.0 mm
02:04 AM 78.8°F26.0°C 51.0°F10.6°C 38% 3.4 mph N5.5 kmh N 5.8 mph9.3 kmh 29.78 in1008.5 mb 0.00 in0.0 mm 0.00 in0.0 mm 0.00 in0.0 mm
02:03 AM 78.4°F25.8°C 50.7°F10.4°C 38% 2.9 mph N4.7 kmh N 3.4 mph5.5 kmh 29.78 in1008.5 mb 0.00 in0.0 mm 0.00 in0.0 mm 0.00 in0.0 mm
02:02 AM 78.3°F25.7°C 50.6°F10.3°C 38% 0.7 mph E1.1 kmh E 2.2 mph3.5 kmh 29.77 in1008.1 mb 0.00 in0.0 mm 0.00 in0.0 mm 0.00 in0.0 mm
02:01 AM 78.3°F25.7°C 51.3°F10.7°C 39% 5.4 mph NE8.7 kmh NE 6.9 mph11.1 kmh 29.78 in1008.5 mb 0.00 in0.0 mm 0.00 in0.0 mm 0.00 in0.0 mm
02:00 AM 78.3°F25.7°C 50.6°F10.3°C 38% 2.9 mph NE4.7 kmh NE 3.4 mph5.5 kmh 29.78 in1008.5 mb 0.00 in0.0 mm 0.00 in0.0 mm 0.00 in0.0 mm
01:59 AM 78.3°F25.7°C 50.6°F10.3°C 38% 2.0 mph NNE3.2 kmh NNE 2.2 mph3.5 kmh 29.77 in1008.1 mb 0.00 in0.0 mm 0.00 in0.0 mm 0.00 in0.0 mm
01:58 AM 78.1°F25.6°C 50.4°F10.2°C 38% 2.2 mph NE3.5 kmh NE 2.2 mph3.5 kmh 29.78 in1008.5 mb 0.00 in0.0 mm 0.00 in0.0 mm 0.00 in0.0 mm
01:57 AM 77.7°F25.4°C 50.0°F10.0°C 38% 2.0 mph NNE3.2 kmh NNE 2.2 mph3.5 kmh 29.78 in1008.5 mb 0.00 in0.0 mm 0.00 in0.0 mm 0.00 in0.0 mm
01:56 AM 77.7°F25.4°C 50.7°F10.4°C 39% 3.6 mph N5.8 kmh N 5.8 mph9.3 kmh 29.78 in1008.5 mb 0.00 in0.0 mm 0.00 in0.0 mm 0.00 in0.0 mm
01:55 AM 77.7°F25.4°C 50.7°F10.4°C 39% 1.1 mph N1.8 kmh N 2.2 mph3.5 kmh 29.77 in1008.1 mb 0.00 in0.0 mm 0.00 in0.0 mm 0.00 in0.0 mm
01:54 AM 77.7°F25.4°C 50.7°F10.4°C 39% 1.3 mph ENE2.1 kmh ENE 2.2 mph3.5 kmh 29.78 in1008.5 mb 0.00 in0.0 mm 0.00 in0.0 mm 0.00 in0.0 mm
01:53 AM 78.4°F25.8°C 51.4°F10.8°C 39% Calm Calm -- 29.78 in1008.5 mb 0.00 in0.0 mm 0.00 in0.0 mm 0.00 in0.0 mm
01:52 AM 78.4°F25.8°C 50.7°F10.4°C 38% 2.7 mph NE4.3 kmh NE 3.4 mph5.5 kmh 29.78 in1008.5 mb 0.00 in0.0 mm 0.00 in0.0 mm 0.00 in0.0 mm
01:51 AM 78.4°F25.8°C 50.7°F10.4°C 38% 0.4 mph SE0.6 kmh SE 1.1 mph1.8 kmh 29.78 in1008.5 mb 0.00 in0.0 mm 0.00 in0.0 mm 0.00 in0.0 mm
01:50 AM 78.4°F25.8°C 50.0°F10.0°C 37% 1.3 mph N2.1 kmh N 2.2 mph3.5 kmh 29.77 in1008.1 mb 0.00 in0.0 mm 0.00 in0.0 mm 0.00 in0.0 mm
01:49 AM 78.6°F25.9°C 50.8°F10.4°C 38% 1.3 mph N2.1 kmh N 2.2 mph3.5 kmh 29.78 in1008.5 mb 0.00 in0.0 mm 0.00 in0.0 mm 0.00 in0.0 mm
01:48 AM 79.0°F26.1°C 50.5°F10.3°C 37% 1.3 mph NE2.1 kmh NE 2.2 mph3.5 kmh 29.78 in1008.5 mb 0.00 in0.0 mm 0.00 in0.0 mm 0.00 in0.0 mm
01:47 AM 79.0°F26.1°C 50.5°F10.3°C 37% 3.1 mph N5.0 kmh N 3.4 mph5.5 kmh 29.78 in1008.5 mb 0.00 in0.0 mm 0.00 in0.0 mm 0.00 in0.0 mm
01:46 AM 79.3°F26.3°C 50.7°F10.4°C 37% Calm Calm -- 29.78 in1008.5 mb 0.00 in0.0 mm 0.00 in0.0 mm 0.00 in0.0 mm
01:45 AM 79.3°F26.3°C 50.7°F10.4°C 37% Calm Calm -- 29.78 in1008.5 mb 0.00 in0.0 mm 0.00 in0.0 mm 0.00 in0.0 mm
01:44 AM 79.3°F26.3°C 50.7°F10.4°C 37% 0.9 mph NNE1.4 kmh NNE 2.2 mph3.5 kmh 29.78 in1008.5 mb 0.00 in0.0 mm 0.00 in0.0 mm 0.00 in0.0 mm
01:43 AM 79.0°F26.1°C 50.5°F10.3°C 37% 2.5 mph NE4.0 kmh NE 3.4 mph5.5 kmh 29.77 in1008.1 mb 0.00 in0.0 mm 0.00 in0.0 mm 0.00 in0.0 mm
01:42 AM 78.8°F26.0°C 50.3°F10.2°C 37% 2.2 mph NE3.5 kmh NE 3.4 mph5.5 kmh 29.78 in1008.5 mb 0.00 in0.0 mm 0.00 in0.0 mm 0.00 in0.0 mm
01:41 AM 78.6°F25.9°C 49.4°F9.7°C 36% 4.7 mph NE7.6 kmh NE 5.8 mph9.3 kmh 29.78 in1008.5 mb 0.00 in0.0 mm 0.00 in0.0 mm 0.00 in0.0 mm
01:40 AM 78.6°F25.9°C 49.4°F9.7°C 36% 3.4 mph NE5.5 kmh NE 3.4 mph5.5 kmh 29.78 in1008.5 mb 0.00 in0.0 mm 0.00 in0.0 mm 0.00 in0.0 mm
01:39 AM 78.4°F25.8°C 50.0°F10.0°C 37% 4.9 mph NE7.9 kmh NE 8.1 mph13.0 kmh 29.78 in1008.5 mb 0.00 in0.0 mm 0.00 in0.0 mm 0.00 in0.0 mm
01:38 AM 78.6°F25.9°C 50.1°F10.1°C 37% 3.4 mph NNE5.5 kmh NNE 4.5 mph7.2 kmh 29.77 in1008.1 mb 0.00 in0.0 mm 0.00 in0.0 mm 0.00 in0.0 mm
01:37 AM 78.8°F26.0°C 49.6°F9.8°C 36% 3.4 mph N5.5 kmh N 4.5 mph7.2 kmh 29.77 in1008.1 mb 0.00 in0.0 mm 0.00 in0.0 mm 0.00 in0.0 mm
01:36 AM 79.0°F26.1°C 49.7°F9.8°C 36% 0.4 mph N0.6 kmh N 1.1 mph1.8 kmh 29.77 in1008.1 mb 0.00 in0.0 mm 0.00 in0.0 mm 0.00 in0.0 mm
01:35 AM 79.0°F26.1°C 49.7°F9.8°C 36% 1.3 mph NE2.1 kmh NE 2.2 mph3.5 kmh 29.77 in1008.1 mb 0.00 in0.0 mm 0.00 in0.0 mm 0.00 in0.0 mm
01:34 AM 79.0°F26.1°C 49.7°F9.8°C 36% 1.3 mph NE2.1 kmh NE 2.2 mph3.5 kmh 29.78 in1008.5 mb 0.00 in0.0 mm 0.00 in0.0 mm 0.00 in0.0 mm
01:33 AM 79.2°F26.2°C 49.9°F9.9°C 36% 0.2 mph NNE0.3 kmh NNE 1.1 mph1.8 kmh 29.78 in1008.5 mb 0.00 in0.0 mm 0.00 in0.0 mm 0.00 in0.0 mm
01:32 AM 79.5°F26.4°C 50.2°F10.1°C 36% 1.6 mph NE2.6 kmh NE 2.2 mph3.5 kmh 29.78 in1008.5 mb 0.00 in0.0 mm 0.00 in0.0 mm 0.00 in0.0 mm
01:31 AM 79.5°F26.4°C 49.4°F9.7°C 35% 2.2 mph NE3.5 kmh NE 2.2 mph3.5 kmh 29.78 in1008.5 mb 0.00 in0.0 mm 0.00 in0.0 mm 0.00 in0.0 mm
01:30 AM 79.5°F26.4°C 49.4°F9.7°C 35% 0.9 mph ENE1.4 kmh ENE 2.2 mph3.5 kmh 29.77 in1008.1 mb 0.00 in0.0 mm 0.00 in0.0 mm 0.00 in0.0 mm
01:29 AM 79.2°F26.2°C 49.2°F9.6°C 35% 2.0 mph S3.2 kmh S 3.4 mph5.5 kmh 29.77 in1008.1 mb 0.00 in0.0 mm 0.00 in0.0 mm 0.00 in0.0 mm
01:28 AM 79.0°F26.1°C 49.0°F9.4°C 35% 3.4 mph NE5.5 kmh NE 5.8 mph9.3 kmh 29.78 in1008.5 mb 0.00 in0.0 mm 0.00 in0.0 mm 0.00 in0.0 mm
01:27 AM 78.1°F25.6°C 49.0°F9.4°C 36% 2.7 mph NE4.3 kmh NE 4.5 mph7.2 kmh 29.78 in1008.5 mb 0.00 in0.0 mm 0.00 in0.0 mm 0.00 in0.0 mm
01:26 AM 78.1°F25.6°C 49.0°F9.4°C 36% 6.9 mph NE11.1 kmh NE 8.1 mph13.0 kmh 29.78 in1008.5 mb 0.00 in0.0 mm 0.00 in0.0 mm 0.00 in0.0 mm
01:25 AM 77.9°F25.5°C 48.8°F9.3°C 36% 2.9 mph NE4.7 kmh NE 4.5 mph7.2 kmh 29.78 in1008.5 mb 0.00 in0.0 mm 0.00 in0.0 mm 0.00 in0.0 mm
01:24 AM 77.7°F25.4°C 48.6°F9.2°C 36% 1.8 mph NE2.9 kmh NE 2.2 mph3.5 kmh 29.78 in1008.5 mb 0.00 in0.0 mm 0.00 in0.0 mm 0.00 in0.0 mm
01:23 AM 77.5°F25.3°C 48.4°F9.1°C 36% 1.3 mph NNE2.1 kmh NNE 2.2 mph3.5 kmh 29.78 in1008.5 mb 0.00 in0.0 mm 0.00 in0.0 mm 0.00 in0.0 mm
01:22 AM 77.4°F25.2°C 48.3°F9.1°C 36% 1.3 mph N2.1 kmh N 2.2 mph3.5 kmh 29.78 in1008.5 mb 0.00 in0.0 mm 0.00 in0.0 mm 0.00 in0.0 mm
01:21 AM 77.4°F25.2°C 48.3°F9.1°C 36% 1.3 mph W2.1 kmh W 2.2 mph3.5 kmh 29.78 in1008.5 mb 0.00 in0.0 mm 0.00 in0.0 mm 0.00 in0.0 mm
01:20 AM 76.6°F24.8°C 48.4°F9.1°C 37% 0.4 mph E0.6 kmh E 1.1 mph1.8 kmh 29.78 in1008.5 mb 0.00 in0.0 mm 0.00 in0.0 mm 0.00 in0.0 mm
01:19 AM 75.9°F24.4°C 47.7°F8.7°C 37% 0.7 mph ESE1.1 kmh ESE 1.1 mph1.8 kmh 29.78 in1008.5 mb 0.00 in0.0 mm 0.00 in0.0 mm 0.00 in0.0 mm
01:18 AM 75.9°F24.4°C 47.7°F8.7°C 37% 0.9 mph N1.4 kmh N 2.2 mph3.5 kmh 29.78 in1008.5 mb 0.00 in0.0 mm 0.00 in0.0 mm 0.00 in0.0 mm
01:17 AM 75.9°F24.4°C 48.5°F9.2°C 38% 0.2 mph NW0.3 kmh NW 1.1 mph1.8 kmh 29.78 in1008.5 mb 0.00 in0.0 mm 0.00 in0.0 mm 0.00 in0.0 mm
01:16 AM 76.1°F24.5°C 49.3°F9.6°C 39% 1.3 mph NW2.1 kmh NW 2.2 mph3.5 kmh 29.78 in1008.5 mb 0.00 in0.0 mm 0.00 in0.0 mm 0.00 in0.0 mm
01:15 AM 76.3°F24.6°C 48.8°F9.3°C 38% 1.1 mph WNW1.8 kmh WNW 1.1 mph1.8 kmh 29.78 in1008.5 mb 0.00 in0.0 mm 0.00 in0.0 mm 0.00 in0.0 mm
01:14 AM 76.3°F24.6°C 48.8°F9.3°C 38% 0.9 mph NW1.4 kmh NW 1.1 mph1.8 kmh 29.78 in1008.5 mb 0.00 in0.0 mm 0.00 in0.0 mm 0.00 in0.0 mm
01:13 AM 76.5°F24.7°C 48.3°F9.1°C 37% Calm Calm -- 29.77 in1008.1 mb 0.00 in0.0 mm 0.00 in0.0 mm 0.00 in0.0 mm
01:12 AM 76.6°F24.8°C 48.4°F9.1°C 37% 1.3 mph NW2.1 kmh NW 2.2 mph3.5 kmh 29.78 in1008.5 mb 0.00 in0.0 mm 0.00 in0.0 mm 0.00 in0.0 mm
01:11 AM 76.8°F24.9°C 48.5°F9.2°C 37% 0.9 mph W1.4 kmh W 1.1 mph1.8 kmh 29.78 in1008.5 mb 0.00 in0.0 mm 0.00 in0.0 mm 0.00 in0.0 mm
01:10 AM 77.0°F25.0°C 48.7°F9.3°C 37% 0.4 mph WSW0.6 kmh WSW 1.1 mph1.8 kmh 29.77 in1008.1 mb 0.00 in0.0 mm 0.00 in0.0 mm 0.00 in0.0 mm
01:09 AM 77.0°F25.0°C 48.7°F9.3°C 37% 0.2 mph WSW0.3 kmh WSW 1.1 mph1.8 kmh 29.78 in1008.5 mb 0.00 in0.0 mm 0.00 in0.0 mm 0.00 in0.0 mm
01:08 AM 77.4°F25.2°C 49.1°F9.5°C 37% 0.2 mph WSW0.3 kmh WSW 1.1 mph1.8 kmh 29.77 in1008.1 mb 0.00 in0.0 mm 0.00 in0.0 mm 0.00 in0.0 mm
01:07 AM 77.9°F25.5°C 48.8°F9.3°C 36% 2.2 mph NW3.5 kmh NW 2.2 mph3.5 kmh 29.78 in1008.5 mb 0.00 in0.0 mm 0.00 in0.0 mm 0.00 in0.0 mm
01:06 AM 78.3°F25.7°C 49.9°F9.9°C 37% 1.8 mph W2.9 kmh W 2.2 mph3.5 kmh 29.78 in1008.5 mb 0.00 in0.0 mm 0.00 in0.0 mm 0.00 in0.0 mm
01:05 AM 78.1°F25.6°C 48.2°F9.0°C 35% 0.9 mph SW1.4 kmh SW 1.1 mph1.8 kmh 29.78 in1008.5 mb 0.00 in0.0 mm 0.00 in0.0 mm 0.00 in0.0 mm
01:04 AM 78.1°F25.6°C 48.2°F9.0°C 35% 0.4 mph SW0.6 kmh SW 1.1 mph1.8 kmh 29.78 in1008.5 mb 0.00 in0.0 mm 0.00 in0.0 mm 0.00 in0.0 mm
01:03 AM 78.1°F25.6°C 48.2°F9.0°C 35% 1.8 mph W2.9 kmh W 2.2 mph3.5 kmh 29.78 in1008.5 mb 0.00 in0.0 mm 0.00 in0.0 mm 0.00 in0.0 mm
01:02 AM 78.6°F25.9°C 49.4°F9.7°C 36% 1.6 mph W2.6 kmh W 2.2 mph3.5 kmh 29.78 in1008.5 mb 0.00 in0.0 mm 0.00 in0.0 mm 0.00 in0.0 mm
01:01 AM 78.6°F25.9°C 48.6°F9.2°C 35% 1.1 mph SSW1.8 kmh SSW 1.1 mph1.8 kmh 29.78 in1008.5 mb 0.00 in0.0 mm 0.00 in0.0 mm 0.00 in0.0 mm
01:00 AM 78.6°F25.9°C 48.6°F9.2°C 35% 0.7 mph S1.1 kmh S 1.1 mph1.8 kmh 29.78 in1008.5 mb 0.00 in0.0 mm 0.00 in0.0 mm 0.00 in0.0 mm
12:59 AM 78.4°F25.8°C 47.7°F8.7°C 34% Calm Calm -- 29.78 in1008.5 mb 0.00 in0.0 mm 0.00 in0.0 mm 0.00 in0.0 mm
12:58 AM 78.4°F25.8°C 48.5°F9.2°C 35% 0.2 mph S0.3 kmh S 1.1 mph1.8 kmh 29.78 in1008.5 mb 0.00 in0.0 mm 0.00 in0.0 mm 0.00 in0.0 mm
12:57 AM 78.4°F25.8°C 48.5°F9.2°C 35% 1.8 mph SSW2.9 kmh SSW 2.2 mph3.5 kmh 29.78 in1008.5 mb 0.00 in0.0 mm 0.00 in0.0 mm 0.00 in0.0 mm
12:56 AM 78.4°F25.8°C 48.5°F9.2°C 35% 0.4 mph SW0.6 kmh SW 1.1 mph1.8 kmh 29.78 in1008.5 mb 0.00 in0.0 mm 0.00 in0.0 mm 0.00 in0.0 mm
12:55 AM 78.6°F25.9°C 48.6°F9.2°C 35% 1.1 mph SW1.8 kmh SW 1.1 mph1.8 kmh 29.78 in1008.5 mb 0.00 in0.0 mm 0.00 in0.0 mm 0.00 in0.0 mm
12:54 AM 79.2°F26.2°C 49.2°F9.6°C 35% 1.8 mph WSW2.9 kmh WSW 2.2 mph3.5 kmh 29.78 in1008.5 mb 0.00 in0.0 mm 0.00 in0.0 mm 0.00 in0.0 mm
12:53 AM 79.3°F26.3°C 49.3°F9.6°C 35% 1.1 mph SW1.8 kmh SW 1.1 mph1.8 kmh 29.77 in1008.1 mb 0.00 in0.0 mm 0.00 in0.0 mm 0.00 in0.0 mm
12:52 AM 79.5°F26.4°C 48.7°F9.3°C 34% 1.1 mph SW1.8 kmh SW 1.1 mph1.8 kmh 29.78 in1008.5 mb 0.00 in0.0 mm 0.00 in0.0 mm 0.00 in0.0 mm
12:51 AM 79.7°F26.5°C 48.8°F9.3°C 34% 0.9 mph SW1.4 kmh SW 1.1 mph1.8 kmh 29.78 in1008.5 mb 0.00 in0.0 mm 0.00 in0.0 mm 0.00 in0.0 mm
12:50 AM 79.7°F26.5°C 48.0°F8.9°C 33% 1.1 mph SW1.8 kmh SW 1.1 mph1.8 kmh 29.78 in1008.5 mb 0.00 in0.0 mm 0.00 in0.0 mm 0.00 in0.0 mm
12:49 AM 79.7°F26.5°C 48.0°F8.9°C 33% 0.2 mph WSW0.3 kmh WSW 1.1 mph1.8 kmh 29.78 in1008.5 mb 0.00 in0.0 mm 0.00 in0.0 mm 0.00 in0.0 mm
12:48 AM 79.5°F26.4°C 47.9°F8.8°C 33% 0.2 mph N0.3 kmh N 1.1 mph1.8 kmh 29.78 in1008.5 mb 0.00 in0.0 mm 0.00 in0.0 mm 0.00 in0.0 mm
12:47 AM 79.3°F26.3°C 48.5°F9.2°C 34% 1.8 mph NNW2.9 kmh NNW 2.2 mph3.5 kmh 29.78 in1008.5 mb 0.00 in0.0 mm 0.00 in0.0 mm 0.00 in0.0 mm
12:46 AM 79.3°F26.3°C 48.5°F9.2°C 34% 0.9 mph N1.4 kmh N 1.1 mph1.8 kmh 29.78 in1008.5 mb 0.00 in0.0 mm 0.00 in0.0 mm 0.00 in0.0 mm
12:45 AM 79.2°F26.2°C 47.6°F8.7°C 33% 2.5 mph SE4.0 kmh SE 4.5 mph7.2 kmh 29.78 in1008.5 mb 0.00 in0.0 mm 0.00 in0.0 mm 0.00 in0.0 mm
12:44 AM 79.3°F26.3°C 48.5°F9.2°C 34% 1.1 mph W1.8 kmh W 1.1 mph1.8 kmh 29.79 in1008.8 mb 0.00 in0.0 mm 0.00 in0.0 mm 0.00 in0.0 mm
12:43 AM 79.5°F26.4°C 48.7°F9.3°C 34% 1.1 mph W1.8 kmh W 1.1 mph1.8 kmh 29.78 in1008.5 mb 0.00 in0.0 mm 0.00 in0.0 mm 0.00 in0.0 mm
12:42 AM 79.5°F26.4°C 48.7°F9.3°C 34% Calm Calm -- 29.78 in1008.5 mb 0.00 in0.0 mm 0.00 in0.0 mm 0.00 in0.0 mm
12:41 AM 79.5°F26.4°C 47.9°F8.8°C 33% 0.7 mph NNW1.1 kmh NNW 1.1 mph1.8 kmh 29.78 in1008.5 mb 0.00 in0.0 mm 0.00 in0.0 mm 0.00 in0.0 mm
12:40 AM 79.5°F26.4°C 47.9°F8.8°C 33% 1.3 mph NE2.1 kmh NE 2.2 mph3.5 kmh 29.78 in1008.5 mb 0.00 in0.0 mm 0.00 in0.0 mm 0.00 in0.0 mm
12:39 AM 79.7°F26.5°C 48.8°F9.3°C 34% Calm Calm -- 29.78 in1008.5 mb 0.00 in0.0 mm 0.00 in0.0 mm 0.00 in0.0 mm
12:38 AM 79.7°F26.5°C 48.0°F8.9°C 33% 1.8 mph W2.9 kmh W 2.2 mph3.5 kmh 29.78 in1008.5 mb 0.00 in0.0 mm 0.00 in0.0 mm 0.00 in0.0 mm
12:37 AM 79.7°F26.5°C 48.0°F8.9°C 33% 1.3 mph S2.1 kmh S 2.2 mph3.5 kmh 29.78 in1008.5 mb 0.00 in0.0 mm 0.00 in0.0 mm 0.00 in0.0 mm
12:36 AM 79.5°F26.4°C 47.9°F8.8°C 33% 2.0 mph N3.2 kmh N 4.5 mph7.2 kmh 29.78 in1008.5 mb 0.00 in0.0 mm 0.00 in0.0 mm 0.00 in0.0 mm
12:35 AM 79.5°F26.4°C 47.9°F8.8°C 33% 4.5 mph SW7.2 kmh SW 4.5 mph7.2 kmh 29.78 in1008.5 mb 0.00 in0.0 mm 0.00 in0.0 mm 0.00 in0.0 mm
12:34 AM 79.5°F26.4°C 48.7°F9.3°C 34% 1.6 mph WSW2.6 kmh WSW 2.2 mph3.5 kmh 29.78 in1008.5 mb 0.00 in0.0 mm 0.00 in0.0 mm 0.00 in0.0 mm
12:33 AM 79.3°F26.3°C 47.7°F8.7°C 33% 0.2 mph N0.3 kmh N 1.1 mph1.8 kmh 29.79 in1008.8 mb 0.00 in0.0 mm 0.00 in0.0 mm 0.00 in0.0 mm
12:32 AM 79.2°F26.2°C 47.6°F8.7°C 33% 3.1 mph NNE5.0 kmh NNE 3.4 mph5.5 kmh 29.78 in1008.5 mb 0.00 in0.0 mm 0.00 in0.0 mm 0.00 in0.0 mm
12:31 AM 79.2°F26.2°C 47.6°F8.7°C 33% 1.8 mph N2.9 kmh N 2.2 mph3.5 kmh 29.78 in1008.5 mb 0.00 in0.0 mm 0.00 in0.0 mm 0.00 in0.0 mm
12:30 AM 79.2°F26.2°C 48.4°F9.1°C 34% 0.9 mph W1.4 kmh W 1.1 mph1.8 kmh 29.78 in1008.5 mb 0.00 in0.0 mm 0.00 in0.0 mm 0.00 in0.0 mm
12:29 AM 79.3°F26.3°C 47.7°F8.7°C 33% 1.3 mph WNW2.1 kmh WNW 2.2 mph3.5 kmh 29.78 in1008.5 mb 0.00 in0.0 mm 0.00 in0.0 mm 0.00 in0.0 mm
12:28 AM 79.3°F26.3°C 47.7°F8.7°C 33% 2.0 mph NW3.2 kmh NW 2.2 mph3.5 kmh 29.78 in1008.5 mb 0.00 in0.0 mm 0.00 in0.0 mm 0.00 in0.0 mm
12:27 AM 78.8°F26.0°C 47.2°F8.4°C 33% 0.4 mph NW0.6 kmh NW 1.1 mph1.8 kmh 29.78 in1008.5 mb 0.00 in0.0 mm 0.00 in0.0 mm 0.00 in0.0 mm
12:26 AM 78.6°F25.9°C 47.1°F8.4°C 33% 3.4 mph NW5.5 kmh NW 4.5 mph7.2 kmh 29.78 in1008.5 mb 0.00 in0.0 mm 0.00 in0.0 mm 0.00 in0.0 mm
12:25 AM 78.6°F25.9°C 47.9°F8.8°C 34% 4.0 mph NNE6.4 kmh NNE 5.8 mph9.3 kmh 29.79 in1008.8 mb 0.00 in0.0 mm 0.00 in0.0 mm 0.00 in0.0 mm
12:24 AM 79.0°F26.1°C 48.2°F9.0°C 34% 3.4 mph ENE5.5 kmh ENE 4.5 mph7.2 kmh 29.79 in1008.8 mb 0.00 in0.0 mm 0.00 in0.0 mm 0.00 in0.0 mm
12:23 AM 79.2°F26.2°C 48.4°F9.1°C 34% 0.2 mph SSW0.3 kmh SSW 1.1 mph1.8 kmh 29.79 in1008.8 mb 0.00 in0.0 mm 0.00 in0.0 mm 0.00 in0.0 mm
12:22 AM 79.3°F26.3°C 48.5°F9.2°C 34% 1.1 mph NE1.8 kmh NE 1.1 mph1.8 kmh 29.78 in1008.5 mb 0.00 in0.0 mm 0.00 in0.0 mm 0.00 in0.0 mm
12:21 AM 79.3°F26.3°C 47.7°F8.7°C 33% Calm Calm -- 29.78 in1008.5 mb 0.00 in0.0 mm 0.00 in0.0 mm 0.00 in0.0 mm
12:20 AM 78.8°F26.0°C 47.2°F8.4°C 33% 2.0 mph SSW3.2 kmh SSW 2.2 mph3.5 kmh 29.78 in1008.5 mb 0.00 in0.0 mm 0.00 in0.0 mm 0.00 in0.0 mm
12:19 AM 78.4°F25.8°C 46.9°F8.3°C 33% 0.7 mph SE1.1 kmh SE 1.1 mph1.8 kmh 29.78 in1008.5 mb 0.00 in0.0 mm 0.00 in0.0 mm 0.00 in0.0 mm
12:18 AM 78.4°F25.8°C 46.9°F8.3°C 33% 1.6 mph SSE2.6 kmh SSE 2.2 mph3.5 kmh 29.78 in1008.5 mb 0.00 in0.0 mm 0.00 in0.0 mm 0.00 in0.0 mm
12:17 AM 78.3°F25.7°C 46.8°F8.2°C 33% 0.9 mph ESE1.4 kmh ESE 1.1 mph1.8 kmh 29.78 in1008.5 mb 0.00 in0.0 mm 0.00 in0.0 mm 0.00 in0.0 mm
12:16 AM 78.3°F25.7°C 47.6°F8.7°C 34% 1.3 mph NW2.1 kmh NW 2.2 mph3.5 kmh 29.78 in1008.5 mb 0.00 in0.0 mm 0.00 in0.0 mm 0.00 in0.0 mm
12:15 AM 78.1°F25.6°C 47.4°F8.6°C 34% 2.5 mph N4.0 kmh N 3.4 mph5.5 kmh 29.78 in1008.5 mb 0.00 in0.0 mm 0.00 in0.0 mm 0.00 in0.0 mm
12:14 AM 77.7°F25.4°C 47.1°F8.4°C 34% Calm Calm -- 29.79 in1008.8 mb 0.00 in0.0 mm 0.00 in0.0 mm 0.00 in0.0 mm
12:13 AM 77.0°F25.0°C 46.5°F8.1°C 34% 1.8 mph NE2.9 kmh NE 2.2 mph3.5 kmh 29.78 in1008.5 mb 0.00 in0.0 mm 0.00 in0.0 mm 0.00 in0.0 mm
12:12 AM 76.5°F24.7°C 46.8°F8.2°C 35% 1.3 mph NE2.1 kmh NE 2.2 mph3.5 kmh 29.78 in1008.5 mb 0.00 in0.0 mm 0.00 in0.0 mm 0.00 in0.0 mm
12:11 AM 76.8°F24.9°C 47.1°F8.4°C 35% Calm Calm -- 29.79 in1008.8 mb 0.00 in0.0 mm 0.00 in0.0 mm 0.00 in0.0 mm
12:10 AM 77.0°F25.0°C 48.0°F8.9°C 36% Calm Calm -- 29.78 in1008.5 mb 0.00 in0.0 mm 0.00 in0.0 mm 0.00 in0.0 mm
12:09 AM 77.5°F25.3°C 48.4°F9.1°C 36% 0.7 mph S1.1 kmh S 2.2 mph3.5 kmh 29.78 in1008.5 mb 0.00 in0.0 mm 0.00 in0.0 mm 0.00 in0.0 mm
12:08 AM 78.3°F25.7°C 48.4°F9.1°C 35% 2.2 mph NNE3.5 kmh NNE 2.2 mph3.5 kmh 29.78 in1008.5 mb 0.00 in0.0 mm 0.00 in0.0 mm 0.00 in0.0 mm
12:07 AM 78.6°F25.9°C 48.6°F9.2°C 35% 0.9 mph ENE1.4 kmh ENE 1.1 mph1.8 kmh 29.79 in1008.8 mb 0.00 in0.0 mm 0.00 in0.0 mm 0.00 in0.0 mm
12:06 AM 78.6°F25.9°C 47.9°F8.8°C 34% 2.9 mph W4.7 kmh W 4.5 mph7.2 kmh 29.78 in1008.5 mb 0.00 in0.0 mm 0.00 in0.0 mm 0.00 in0.0 mm
12:05 AM 78.4°F25.8°C 47.7°F8.7°C 34% 2.7 mph W4.3 kmh W 3.4 mph5.5 kmh 29.78 in1008.5 mb 0.00 in0.0 mm 0.00 in0.0 mm 0.00 in0.0 mm
12:04 AM 77.5°F25.3°C 46.1°F7.8°C 33% 1.8 mph W2.9 kmh W 2.2 mph3.5 kmh 29.78 in1008.5 mb 0.00 in0.0 mm 0.00 in0.0 mm 0.00 in0.0 mm
12:03 AM 77.5°F25.3°C 46.9°F8.3°C 34% 1.8 mph NW2.9 kmh NW 2.2 mph3.5 kmh 29.79 in1008.8 mb 0.00 in0.0 mm 0.00 in0.0 mm 0.00 in0.0 mm
12:02 AM 77.5°F25.3°C 46.9°F8.3°C 34% 2.2 mph NW3.5 kmh NW 3.4 mph5.5 kmh 29.78 in1008.5 mb 0.00 in0.0 mm 0.00 in0.0 mm 0.00 in0.0 mm
12:01 AM 77.5°F25.3°C 47.7°F8.7°C 35% 1.6 mph NW2.6 kmh NW 2.2 mph3.5 kmh 29.78 in1008.5 mb 0.00 in0.0 mm 0.00 in0.0 mm 0.00 in0.0 mm
12:00 AM 77.7°F25.4°C 47.1°F8.4°C 34% 1.1 mph NNE1.8 kmh NNE 1.1 mph1.8 kmh 29.78 in1008.5 mb 0.00 in0.0 mm 0.00 in0.0 mm 0.00 in0.0 mm